Wetterdaten: Dienstag, 16.03.2021
Datum Zeit Temp. Aussen Temp. o. S. Temp +5cm Feuchte Auss Luftdruck Regen Sonnenschein Regendauer Solar Windben Empfang
16.03.2021 00:00 4,9 C 4,4 C 3,4 C 95 % 1020,5 hPa 0,0 l/m 0 min 2 min 0 W/m 12,9 km/h (3 Bft) 100,00 %
16.03.2021 00:02 4,9 C 4,4 C 3,4 C 95 % 1020,5 hPa 0,0 l/m 0 min 2 min 0 W/m 22,5 km/h (4 Bft) 94,74 %
16.03.2021 00:04 4,9 C 4,4 C 3,4 C 95 % 1020,5 hPa 0,0 l/m 0 min 2 min 0 W/m 19,3 km/h (3 Bft) 97,87 %
16.03.2021 00:08 4,9 C 4,4 C 3,9 C 95 % 1020,5 hPa 0,0 l/m 0 min 0 min 0 W/m 16,1 km/h (3 Bft) 97,87 %
16.03.2021 00:10 5,0 C 4,4 C 3,9 C 95 % 1020,5 hPa 0,0 l/m 0 min 2 min 0 W/m 12,9 km/h (3 Bft) 97,87 %
16.03.2021 00:12 5,0 C 4,4 C 3,9 C 95 % 1020,5 hPa 0,0 l/m 0 min 0 min 0 W/m 12,9 km/h (3 Bft) 97,87 %
16.03.2021 00:14 5,0 C 4,4 C 3,9 C 95 % 1020,5 hPa 0,0 l/m 0 min 2 min 0 W/m 12,9 km/h (3 Bft) 97,87 %
16.03.2021 00:16 5,0 C 4,4 C 3,9 C 95 % 1020,5 hPa 0,0 l/m 0 min 0 min 0 W/m 9,7 km/h (2 Bft) 97,87 %
16.03.2021 00:18 5,0 C 4,4 C 3,9 C 95 % 1020,6 hPa 0,0 l/m 0 min 2 min 0 W/m 16,1 km/h (3 Bft) 100,00 %
16.03.2021 00:20 5,0 C 4,4 C 3,9 C 95 % 1020,6 hPa 0,0 l/m 0 min 2 min 0 W/m 19,3 km/h (3 Bft) 97,83 %
16.03.2021 00:22 5,0 C 4,4 C 3,9 C 95 % 1020,5 hPa 0,0 l/m 0 min 2 min 0 W/m 29,0 km/h (5 Bft) 97,87 %
16.03.2021 00:24 5,0 C 4,4 C 3,9 C 95 % 1020,6 hPa 0,0 l/m 0 min 2 min 0 W/m 9,7 km/h (2 Bft) 100,00 %
16.03.2021 00:26 5,0 C 4,4 C 3,9 C 95 % 1020,7 hPa 0,0 l/m 0 min 2 min 0 W/m 16,1 km/h (3 Bft) 100,00 %
16.03.2021 00:28 5,0 C 4,4 C 3,9 C 94 % 1020,7 hPa 0,0 l/m 0 min 2 min 0 W/m 12,9 km/h (3 Bft) 100,00 %
16.03.2021 00:30 5,0 C 4,4 C 3,9 C 95 % 1020,6 hPa 0,0 l/m 0 min 2 min 0 W/m 22,5 km/h (4 Bft) 100,00 %
16.03.2021 00:32 5,1 C 4,4 C 3,9 C 95 % 1020,7 hPa 0,0 l/m 0 min 0 min 0 W/m 16,1 km/h (3 Bft) 100,00 %
16.03.2021 00:34 5,1 C 4,4 C 3,9 C 95 % 1020,8 hPa 0,0 l/m 0 min 2 min 0 W/m 19,3 km/h (3 Bft) 97,87 %
16.03.2021 00:36 5,1 C 4,4 C 3,9 C 95 % 1020,7 hPa 0,0 l/m 0 min 0 min 0 W/m 19,3 km/h (3 Bft) 100,00 %
16.03.2021 00:38 5,1 C 4,4 C 3,9 C 95 % 1020,7 hPa 0,0 l/m 0 min 0 min 0 W/m 16,1 km/h (3 Bft) 100,00 %
16.03.2021 00:40 5,1 C 4,4 C 3,9 C 95 % 1020,7 hPa 0,0 l/m 0 min 0 min 0 W/m 12,9 km/h (3 Bft) 100,00 %
16.03.2021 00:42 5,1 C 4,4 C 3,9 C 94 % 1020,7 hPa 0,0 l/m 0 min 0 min 0 W/m 19,3 km/h (3 Bft) 100,00 %
16.03.2021 00:44 5,1 C 4,4 C 3,9 C 94 % 1020,7 hPa 0,0 l/m 0 min 0 min 0 W/m 16,1 km/h (3 Bft) 100,00 %
16.03.2021 00:46 5,1 C 4,4 C 3,9 C 94 % 1020,8 hPa 0,0 l/m 0 min 2 min 0 W/m 16,1 km/h (3 Bft) 97,87 %
16.03.2021 00:48 5,1 C 4,4 C 3,9 C 94 % 1020,8 hPa 0,0 l/m 0 min 0 min 0 W/m 19,3 km/h (3 Bft) 100,00 %
16.03.2021 00:50 5,1 C 4,4 C 3,9 C 94 % 1020,8 hPa 0,0 l/m 0 min 0 min 0 W/m 12,9 km/h (3 Bft) 100,00 %
16.03.2021 00:52 5,1 C 4,4 C 3,9 C 94 % 1020,8 hPa 0,0 l/m 0 min 2 min 0 W/m 19,3 km/h (3 Bft) 100,00 %
16.03.2021 00:54 5,1 C 4,4 C 3,9 C 94 % 1020,8 hPa 0,0 l/m 0 min 0 min 0 W/m 12,9 km/h (3 Bft) 100,00 %
16.03.2021 00:56 5,1 C 4,4 C 3,9 C 94 % 1020,8 hPa 0,0 l/m 0 min 0 min 0 W/m 16,1 km/h (3 Bft) 100,00 %
16.03.2021 00:58 5,1 C 4,4 C 3,9 C 94 % 1020,8 hPa 0,0 l/m 0 min 0 min 0 W/m 19,3 km/h (3 Bft) 100,00 %
16.03.2021 01:00 5,1 C 4,4 C 3,9 C 94 % 1020,9 hPa 0,0 l/m 0 min 0 min 0 W/m 12,9 km/h (3 Bft) 100,00 %
16.03.2021 01:02 5,1 C 4,4 C 3,9 C 94 % 1020,9 hPa 0,0 l/m 0 min 0 min 0 W/m 16,1 km/h (3 Bft) 100,00 %
16.03.2021 01:04 5,1 C 4,4 C 3,9 C 94 % 1020,9 hPa 0,0 l/m 0 min 0 min 0 W/m 12,9 km/h (3 Bft) 100,00 %
16.03.2021 01:06 5,1 C 4,4 C 3,9 C 94 % 1021,0 hPa 0,0 l/m 0 min 0 min 0 W/m 16,1 km/h (3 Bft) 100,00 %
16.03.2021 01:08 5,1 C 4,4 C 3,9 C 94 % 1021,0 hPa 0,0 l/m 0 min 0 min 0 W/m 16,1 km/h (3 Bft) 97,83 %
16.03.2021 01:10 5,1 C 4,4 C 3,9 C 94 % 1021,0 hPa 0,0 l/m 0 min 0 min 0 W/m 19,3 km/h (3 Bft) 100,00 %
16.03.2021 01:12 5,1 C 4,4 C 3,9 C 94 % 1020,9 hPa 0,0 l/m 0 min 0 min 0 W/m 19,3 km/h (3 Bft) 100,00 %
16.03.2021 01:14 5,1 C 4,4 C 3,9 C 94 % 1021,0 hPa 0,0 l/m 0 min 0 min 0 W/m 12,9 km/h (3 Bft) 100,00 %
16.03.2021 01:16 5,1 C 4,4 C 3,9 C 94 % 1021,1 hPa 0,0 l/m 0 min 0 min 0 W/m 16,1 km/h (3 Bft) 97,87 %
16.03.2021 01:18 5,1 C 4,4 C 3,9 C 94 % 1021,1 hPa 0,0 l/m 0 min 0 min 0 W/m 16,1 km/h (3 Bft) 100,00 %
16.03.2021 01:20 5,1 C 4,4 C 3,9 C 94 % 1021,0 hPa 0,0 l/m 0 min 0 min 0 W/m 16,1 km/h (3 Bft) 97,83 %
16.03.2021 01:22 5,1 C 4,4 C 3,9 C 94 % 1021,1 hPa 0,0 l/m 0 min 0 min 0 W/m 19,3 km/h (3 Bft) 97,87 %
16.03.2021 01:24 5,1 C 4,4 C 3,9 C 94 % 1021,0 hPa 0,0 l/m 0 min 0 min 0 W/m 22,5 km/h (4 Bft) 97,87 %
16.03.2021 01:26 5,1 C 5,0 C 3,9 C 94 % 1021,1 hPa 0,0 l/m 0 min 0 min 0 W/m 16,1 km/h (3 Bft) 95,74 %
16.03.2021 01:28 5,1 C 5,0 C 3,9 C 94 % 1021,1 hPa 0,0 l/m 0 min 0 min 0 W/m 19,3 km/h (3 Bft) 97,87 %
16.03.2021 01:30 5,1 C 5,0 C 3,9 C 94 % 1021,1 hPa 0,0 l/m 0 min 0 min 0 W/m 12,9 km/h (3 Bft) 97,87 %
16.03.2021 01:32 5,1 C 5,0 C 3,9 C 94 % 1021,2 hPa 0,0 l/m 0 min 0 min 0 W/m 12,9 km/h (3 Bft) 97,83 %
16.03.2021 01:34 5,2 C 5,0 C 3,9 C 94 % 1021,2 hPa 0,0 l/m 0 min 0 min 0 W/m 12,9 km/h (3 Bft) 97,87 %
16.03.2021 01:36 5,2 C 5,0 C 3,9 C 94 % 1021,2 hPa 0,0 l/m 0 min 0 min 0 W/m 9,7 km/h (2 Bft) 93,62 %
16.03.2021 01:38 5,2 C 4,4 C 3,9 C 94 % 1021,2 hPa 0,0 l/m 0 min 0 min 0 W/m 16,1 km/h (3 Bft) 95,74 %
16.03.2021 01:40 5,2 C 4,4 C 3,9 C 94 % 1021,2 hPa 0,0 l/m 0 min 0 min 0 W/m 12,9 km/h (3 Bft) 93,62 %
16.03.2021 01:42 5,2 C 4,4 C 3,9 C 93 % 1021,2 hPa 0,0 l/m 0 min 0 min 0 W/m 9,7 km/h (2 Bft) 91,30 %
16.03.2021 01:44 5,2 C 4,4 C 3,9 C 93 % 1021,3 hPa 0,0 l/m 0 min 0 min 0 W/m 6,4 km/h (2 Bft) 93,62 %
16.03.2021 01:46 5,2 C 4,4 C 3,9 C 93 % 1021,3 hPa 0,0 l/m 0 min 0 min 0 W/m 12,9 km/h (3 Bft) 91,49 %
16.03.2021 01:48 5,2 C 4,4 C 3,9 C 93 % 1021,3 hPa 0,0 l/m 0 min 0 min 0 W/m 9,7 km/h (2 Bft) 95,74 %
16.03.2021 01:50 5,1 C 4,4 C 3,9 C 93 % 1021,3 hPa 0,0 l/m 0 min 0 min 0 W/m 12,9 km/h (3 Bft) 95,74 %
16.03.2021 01:52 5,1 C 4,4 C 3,9 C 93 % 1021,3 hPa 0,0 l/m 0 min 0 min 0 W/m 12,9 km/h (3 Bft) 95,74 %
16.03.2021 01:54 5,1 C 4,4 C 3,9 C 93 % 1021,3 hPa 0,0 l/m 0 min 0 min 0 W/m 12,9 km/h (3 Bft) 93,48 %
16.03.2021 01:56 5,1 C 4,4 C 3,9 C 93 % 1021,3 hPa 0,0 l/m 0 min 0 min 0 W/m 12,9 km/h (3 Bft) 93,62 %
16.03.2021 01:58 5,1 C 4,4 C 3,9 C 93 % 1021,3 hPa 0,0 l/m 0 min 0 min 0 W/m 12,9 km/h (3 Bft) 95,74 %
16.03.2021 02:00 5,1 C 4,4 C 3,9 C 93 % 1021,3 hPa 0,0 l/m 0 min 0 min 0 W/m 12,9 km/h (3 Bft) 93,62 %
16.03.2021 02:02 5,1 C 4,4 C 3,9 C 93 % 1021,4 hPa 0,0 l/m 0 min 0 min 0 W/m 16,1 km/h (3 Bft) 95,74 %
16.03.2021 02:04 5,1 C 5,0 C 3,9 C 93 % 1021,3 hPa 0,0 l/m 0 min 0 min 0 W/m 16,1 km/h (3 Bft) 93,62 %
16.03.2021 02:06 5,1 C 5,0 C 3,9 C 93 % 1021,4 hPa 0,0 l/m 0 min 0 min 0 W/m 19,3 km/h (3 Bft) 93,48 %
16.03.2021 02:08 5,2 C 4,4 C 3,9 C 93 % 1021,4 hPa 0,0 l/m 0 min 0 min 0 W/m 16,1 km/h (3 Bft) 93,62 %
16.03.2021 02:10 5,2 C 4,4 C 3,9 C 92 % 1021,4 hPa 0,0 l/m 0 min 0 min 0 W/m 16,1 km/h (3 Bft) 93,62 %
16.03.2021 02:12 5,2 C 4,4 C 3,9 C 92 % 1021,4 hPa 0,0 l/m 0 min 0 min 0 W/m 19,3 km/h (3 Bft) 95,74 %
16.03.2021 02:14 5,2 C 5,0 C 3,9 C 92 % 1021,5 hPa 0,0 l/m 0 min 0 min 0 W/m 16,1 km/h (3 Bft) 91,07 %
16.03.2021 02:16 5,2 C 5,0 C 3,9 C 93 % 1021,5 hPa 0,0 l/m 0 min 0 min 0 W/m 22,5 km/h (4 Bft) 95,65 %
16.03.2021 02:18 5,2 C 5,0 C 3,9 C 93 % 1021,5 hPa 0,0 l/m 0 min 0 min 0 W/m 12,9 km/h (3 Bft) 95,74 %
16.03.2021 02:20 5,2 C 5,0 C 3,9 C 92 % 1021,5 hPa 0,0 l/m 0 min 0 min 0 W/m 9,7 km/h (2 Bft) 95,74 %
16.03.2021 02:22 5,2 C 5,0 C 3,9 C 92 % 1021,5 hPa 0,0 l/m 0 min 0 min 0 W/m 9,7 km/h (2 Bft) 95,74 %
16.03.2021 02:24 5,3 C 5,0 C 3,9 C 92 % 1021,5 hPa 0,0 l/m 0 min 0 min 0 W/m 9,7 km/h (2 Bft) 93,62 %
16.03.2021 02:26 5,3 C 5,0 C 3,9 C 92 % 1021,6 hPa 0,0 l/m 0 min 0 min 0 W/m 12,9 km/h (3 Bft) 95,74 %
16.03.2021 02:28 5,3 C 5,0 C 3,9 C 92 % 1021,5 hPa 0,0 l/m 0 min 0 min 0 W/m 22,5 km/h (4 Bft) 95,65 %
16.03.2021 02:30 5,3 C 5,0 C 3,9 C 92 % 1021,5 hPa 0,0 l/m 0 min 0 min 0 W/m 19,3 km/h (3 Bft) 95,74 %
16.03.2021 02:32 5,3 C 4,4 C 3,9 C 92 % 1021,5 hPa 0,0 l/m 0 min 0 min 0 W/m 16,1 km/h (3 Bft) 94,44 %
16.03.2021 02:34 5,2 C 4,4 C 3,9 C 92 % 1021,5 hPa 0,0 l/m 0 min 0 min 0 W/m 12,9 km/h (3 Bft) 95,74 %
16.03.2021 02:36 5,2 C 4,4 C 3,9 C 92 % 1021,5 hPa 0,0 l/m 0 min 0 min 0 W/m 16,1 km/h (3 Bft) 93,62 %
16.03.2021 02:38 5,2 C 4,4 C 3,9 C 92 % 1021,4 hPa 0,0 l/m 0 min 0 min 0 W/m 16,1 km/h (3 Bft) 96,61 %
16.03.2021 02:40 5,2 C 4,4 C 3,9 C 92 % 1021,5 hPa 0,0 l/m 0 min 0 min 0 W/m 25,7 km/h (4 Bft) 94,29 %
16.03.2021 02:42 5,1 C 4,4 C 3,9 C 92 % 1021,4 hPa 0,0 l/m 0 min 0 min 0 W/m 16,1 km/h (3 Bft) 95,65 %
16.03.2021 02:44 5,1 C 4,4 C 3,9 C 92 % 1021,4 hPa 0,0 l/m 0 min 0 min 0 W/m 16,1 km/h (3 Bft) 95,74 %
16.03.2021 02:46 5,1 C 4,4 C 3,9 C 92 % 1021,5 hPa 0,0 l/m 0 min 0 min 0 W/m 22,5 km/h (4 Bft) 91,67 %
16.03.2021 02:48 5,1 C 4,4 C 3,9 C 92 % 1021,5 hPa 0,0 l/m 0 min 0 min 0 W/m 19,3 km/h (3 Bft) 97,26 %
16.03.2021 02:50 5,1 C 4,4 C 3,9 C 92 % 1021,5 hPa 0,0 l/m 0 min 0 min 0 W/m 19,3 km/h (3 Bft) 97,87 %
16.03.2021 02:52 5,1 C 4,4 C 3,9 C 92 % 1021,5 hPa 0,0 l/m 0 min 0 min 0 W/m 12,9 km/h (3 Bft) 97,87 %
16.03.2021 02:54 5,1 C 4,4 C 3,9 C 92 % 1021,5 hPa 0,0 l/m 0 min 0 min 0 W/m 16,1 km/h (3 Bft) 97,83 %
16.03.2021 02:56 5,1 C 4,4 C 3,9 C 92 % 1021,5 hPa 0,0 l/m 0 min 0 min 0 W/m 22,5 km/h (4 Bft) 93,62 %
16.03.2021 02:58 5,0 C 4,4 C 3,9 C 92 % 1021,5 hPa 0,0 l/m 0 min 0 min 0 W/m 12,9 km/h (3 Bft) 97,87 %
16.03.2021 03:00 5,0 C 4,4 C 3,9 C 92 % 1021,5 hPa 0,0 l/m 0 min 0 min 0 W/m 12,9 km/h (3 Bft) 95,74 %
16.03.2021 03:02 5,0 C 4,4 C 3,9 C 92 % 1021,5 hPa 0,0 l/m 0 min 0 min 0 W/m 19,3 km/h (3 Bft) 96,23 %
16.03.2021 03:04 5,0 C 4,4 C 3,4 C 92 % 1021,5 hPa 0,0 l/m 0 min 0 min 0 W/m 16,1 km/h (3 Bft) 97,87 %
16.03.2021 03:06 5,0 C 4,4 C 3,4 C 92 % 1021,6 hPa 0,0 l/m 0 min 0 min 0 W/m 12,9 km/h (3 Bft) 97,87 %
16.03.2021 03:08 5,0 C 4,4 C 3,4 C 92 % 1021,6 hPa 0,0 l/m 0 min 0 min 0 W/m 16,1 km/h (3 Bft) 97,87 %
16.03.2021 03:10 4,9 C 4,4 C 3,4 C 92 % 1021,6 hPa 0,0 l/m 0 min 0 min 0 W/m 16,1 km/h (3 Bft) 97,87 %
16.03.2021 03:12 4,9 C 4,4 C 3,4 C 92 % 1021,6 hPa 0,0 l/m 0 min 0 min 0 W/m 12,9 km/h (3 Bft) 97,87 %
16.03.2021 03:14 4,9 C 4,4 C 3,4 C 92 % 1021,7 hPa 0,0 l/m 0 min 0 min 0 W/m 16,1 km/h (3 Bft) 97,87 %
16.03.2021 03:16 4,9 C 4,4 C 3,4 C 92 % 1021,7 hPa 0,0 l/m 0 min 0 min 0 W/m 12,9 km/h (3 Bft) 97,37 %
16.03.2021 03:18 4,9 C 4,4 C 3,4 C 92 % 1021,8 hPa 0,0 l/m 0 min 0 min 0 W/m 16,1 km/h (3 Bft) 95,74 %
16.03.2021 03:20 4,9 C 4,4 C 3,4 C 92 % 1021,8 hPa 0,0 l/m 0 min 0 min 0 W/m 9,7 km/h (2 Bft) 97,87 %
16.03.2021 03:22 4,9 C 4,4 C 3,4 C 92 % 1021,7 hPa 0,0 l/m 0 min 0 min 0 W/m 16,1 km/h (3 Bft) 97,87 %
16.03.2021 03:24 4,9 C 4,4 C 3,4 C 92 % 1021,7 hPa 0,0 l/m 0 min 0 min 0 W/m 16,1 km/h (3 Bft) 97,87 %
16.03.2021 03:26 4,9 C 4,4 C 3,4 C 92 % 1021,7 hPa 0,0 l/m 0 min 0 min 0 W/m 22,5 km/h (4 Bft) 97,87 %
16.03.2021 03:28 4,9 C 4,4 C 3,4 C 92 % 1021,8 hPa 0,0 l/m 0 min 0 min 0 W/m 12,9 km/h (3 Bft) 97,87 %
16.03.2021 03:30 4,9 C 4,4 C 3,4 C 92 % 1021,8 hPa 0,0 l/m 0 min 0 min 0 W/m 16,1 km/h (3 Bft) 97,83 %
16.03.2021 03:32 4,9 C 4,4 C 3,4 C 93 % 1021,8 hPa 0,0 l/m 0 min 0 min 0 W/m 16,1 km/h (3 Bft) 95,74 %
16.03.2021 03:34 4,9 C 4,4 C 3,4 C 93 % 1021,8 hPa 0,0 l/m 0 min 0 min 0 W/m 16,1 km/h (3 Bft) 97,87 %
16.03.2021 03:36 4,9 C 4,4 C 3,4 C 93 % 1021,8 hPa 0,0 l/m 0 min 0 min 0 W/m 12,9 km/h (3 Bft) 97,87 %
16.03.2021 03:38 4,9 C 4,4 C 3,4 C 92 % 1021,8 hPa 0,0 l/m 0 min 0 min 0 W/m 12,9 km/h (3 Bft) 95,74 %
16.03.2021 03:40 4,9 C 4,4 C 3,4 C 92 % 1021,8 hPa 0,0 l/m 0 min 0 min 0 W/m 12,9 km/h (3 Bft) 97,83 %
16.03.2021 03:42 4,9 C 3,9 C 3,4 C 92 % 1021,9 hPa 0,0 l/m 0 min 0 min 0 W/m 12,9 km/h (3 Bft) 100,00 %
16.03.2021 03:44 4,8 C 4,4 C 3,4 C 92 % 1021,9 hPa 0,0 l/m 0 min 0 min 0 W/m 16,1 km/h (3 Bft) 100,00 %
16.03.2021 03:46 4,8 C 4,4 C 3,4 C 92 % 1021,9 hPa 0,0 l/m 0 min 0 min 0 W/m 12,9 km/h (3 Bft) 100,00 %
16.03.2021 03:48 4,8 C 4,4 C 3,4 C 93 % 1021,9 hPa 0,0 l/m 0 min 0 min 0 W/m 16,1 km/h (3 Bft) 100,00 %
16.03.2021 03:50 4,8 C 4,4 C 3,4 C 93 % 1021,9 hPa 0,0 l/m 0 min 0 min 0 W/m 12,9 km/h (3 Bft) 97,87 %
16.03.2021 03:52 4,8 C 4,4 C 3,4 C 93 % 1022,0 hPa 0,0 l/m 0 min 0 min 0 W/m 16,1 km/h (3 Bft) 100,00 %
16.03.2021 03:54 4,9 C 4,4 C 3,4 C 93 % 1022,0 hPa 0,0 l/m 0 min 0 min 0 W/m 9,7 km/h (2 Bft) 100,00 %
16.03.2021 03:56 4,9 C 4,4 C 3,4 C 93 % 1022,0 hPa 0,0 l/m 0 min 0 min 0 W/m 9,7 km/h (2 Bft) 97,87 %
16.03.2021 03:58 4,9 C 4,4 C 3,4 C 93 % 1022,0 hPa 0,0 l/m 0 min 0 min 0 W/m 12,9 km/h (3 Bft) 95,74 %
16.03.2021 04:00 4,9 C 4,4 C 3,4 C 93 % 1022,0 hPa 0,0 l/m 0 min 0 min 0 W/m 16,1 km/h (3 Bft) 100,00 %
16.03.2021 04:02 4,8 C 4,4 C 3,4 C 93 % 1022,1 hPa 0,0 l/m 0 min 0 min 0 W/m 6,4 km/h (2 Bft) 100,00 %
16.03.2021 04:04 4,8 C 4,4 C 3,4 C 93 % 1022,1 hPa 0,0 l/m 0 min 0 min 0 W/m 9,7 km/h (2 Bft) 100,00 %
16.03.2021 04:06 4,8 C 4,4 C 3,4 C 93 % 1022,1 hPa 0,0 l/m 0 min 0 min 0 W/m 12,9 km/h (3 Bft) 97,87 %
16.03.2021 04:08 4,8 C 4,4 C 3,4 C 93 % 1022,1 hPa 0,0 l/m 0 min 0 min 0 W/m 6,4 km/h (2 Bft) 97,87 %
16.03.2021 04:10 4,8 C 4,4 C 3,4 C 93 % 1022,1 hPa 0,0 l/m 0 min 0 min 0 W/m 9,7 km/h (2 Bft) 100,00 %
16.03.2021 04:12 4,8 C 4,4 C 3,4 C 93 % 1022,0 hPa 0,0 l/m 0 min 0 min 0 W/m 9,7 km/h (2 Bft) 95,74 %
16.03.2021 04:14 4,8 C 4,4 C 3,4 C 93 % 1022,1 hPa 0,0 l/m 0 min 0 min 0 W/m 9,7 km/h (2 Bft) 100,00 %
16.03.2021 04:16 4,8 C 4,4 C 3,4 C 93 % 1022,1 hPa 0,0 l/m 0 min 0 min 0 W/m 16,1 km/h (3 Bft) 97,83 %
16.03.2021 04:18 4,8 C 4,4 C 3,4 C 93 % 1022,1 hPa 0,0 l/m 0 min 0 min 0 W/m 16,1 km/h (3 Bft) 97,87 %
16.03.2021 04:20 4,8 C 4,4 C 3,4 C 93 % 1022,1 hPa 0,0 l/m 0 min 0 min 0 W/m 9,7 km/h (2 Bft) 97,87 %
16.03.2021 04:22 4,8 C 4,4 C 3,4 C 93 % 1022,1 hPa 0,0 l/m 0 min 0 min 0 W/m 12,9 km/h (3 Bft) 95,74 %
16.03.2021 04:24 4,8 C 4,4 C 3,4 C 93 % 1022,2 hPa 0,0 l/m 0 min 0 min 0 W/m 12,9 km/h (3 Bft) 97,87 %
16.03.2021 04:26 4,8 C 4,4 C 3,4 C 93 % 1022,2 hPa 0,0 l/m 0 min 0 min 0 W/m 16,1 km/h (3 Bft) 97,87 %
16.03.2021 04:28 4,8 C 4,4 C 3,4 C 93 % 1022,3 hPa 0,0 l/m 0 min 0 min 0 W/m 19,3 km/h (3 Bft) 95,65 %
16.03.2021 04:30 4,8 C 4,4 C 3,4 C 92 % 1022,2 hPa 0,0 l/m 0 min 0 min 0 W/m 9,7 km/h (2 Bft) 93,62 %
16.03.2021 04:32 4,8 C 4,4 C 3,4 C 92 % 1022,2 hPa 0,0 l/m 0 min 0 min 0 W/m 9,7 km/h (2 Bft) 95,74 %
16.03.2021 04:34 4,8 C 4,4 C 3,4 C 92 % 1022,3 hPa 0,0 l/m 0 min 0 min 0 W/m 19,3 km/h (3 Bft) 95,74 %
16.03.2021 04:36 4,8 C 4,4 C 3,4 C 92 % 1022,4 hPa 0,0 l/m 0 min 0 min 0 W/m 12,9 km/h (3 Bft) 91,49 %
16.03.2021 04:38 4,8 C 4,4 C 3,4 C 92 % 1022,4 hPa 0,0 l/m 0 min 0 min 0 W/m 16,1 km/h (3 Bft) 95,74 %
16.03.2021 04:40 4,8 C 4,4 C 3,4 C 92 % 1022,5 hPa 0,0 l/m 0 min 0 min 0 W/m 19,3 km/h (3 Bft) 93,48 %
16.03.2021 04:42 4,8 C 4,4 C 3,4 C 92 % 1022,4 hPa 0,0 l/m 0 min 0 min 0 W/m 12,9 km/h (3 Bft) 95,74 %
16.03.2021 04:44 4,8 C 4,4 C 3,4 C 92 % 1022,4 hPa 0,0 l/m 0 min 0 min 0 W/m 12,9 km/h (3 Bft) 97,87 %
16.03.2021 04:46 4,8 C 4,4 C 3,4 C 92 % 1022,5 hPa 0,0 l/m 0 min 0 min 0 W/m 9,7 km/h (2 Bft) 95,74 %
16.03.2021 04:48 4,8 C 4,4 C 3,4 C 92 % 1022,5 hPa 0,0 l/m 0 min 0 min 0 W/m 9,7 km/h (2 Bft) 93,62 %
16.03.2021 04:50 4,8 C 4,4 C 3,4 C 92 % 1022,5 hPa 0,0 l/m 0 min 0 min 0 W/m 16,1 km/h (3 Bft) 95,74 %
16.03.2021 04:52 4,8 C 4,4 C 3,4 C 91 % 1022,5 hPa 0,0 l/m 0 min 0 min 0 W/m 16,1 km/h (3 Bft) 95,65 %
16.03.2021 04:54 4,8 C 4,4 C 3,4 C 91 % 1022,5 hPa 0,0 l/m 0 min 0 min 0 W/m 12,9 km/h (3 Bft) 91,49 %
16.03.2021 04:56 4,8 C 4,4 C 3,4 C 91 % 1022,5 hPa 0,0 l/m 0 min 0 min 0 W/m 12,9 km/h (3 Bft) 95,74 %
16.03.2021 04:58 4,8 C 4,4 C 3,4 C 91 % 1022,6 hPa 0,0 l/m 0 min 0 min 0 W/m 12,9 km/h (3 Bft) 95,74 %
16.03.2021 05:00 4,9 C 4,4 C 3,4 C 91 % 1022,6 hPa 0,0 l/m 0 min 0 min 0 W/m 9,7 km/h (2 Bft) 93,62 %
16.03.2021 05:02 4,9 C 4,4 C 3,4 C 91 % 1022,6 hPa 0,0 l/m 0 min 0 min 0 W/m 6,4 km/h (2 Bft) 95,65 %
16.03.2021 05:04 4,9 C 4,4 C 3,4 C 91 % 1022,6 hPa 0,0 l/m 0 min 0 min 0 W/m 6,4 km/h (2 Bft) 95,74 %
16.03.2021 05:06 4,9 C 4,4 C 3,4 C 91 % 1022,6 hPa 0,0 l/m 0 min 0 min 0 W/m 9,7 km/h (2 Bft) 95,74 %
16.03.2021 05:08 4,9 C 4,4 C 3,4 C 91 % 1022,6 hPa 0,0 l/m 0 min 0 min 0 W/m 9,7 km/h (2 Bft) 95,74 %
16.03.2021 05:10 4,9 C 4,4 C 3,4 C 91 % 1022,6 hPa 0,0 l/m 0 min 0 min 0 W/m 6,4 km/h (2 Bft) 95,74 %
16.03.2021 05:12 4,9 C 4,4 C 3,4 C 91 % 1022,6 hPa 0,0 l/m 0 min 0 min 0 W/m 6,4 km/h (2 Bft) 100,00 %
16.03.2021 05:14 4,9 C 4,4 C 3,4 C 91 % 1022,6 hPa 0,0 l/m 0 min 0 min 0 W/m 12,9 km/h (3 Bft) 97,83 %
16.03.2021 05:16 4,9 C 4,4 C 3,4 C 91 % 1022,6 hPa 0,0 l/m 0 min 0 min 0 W/m 9,7 km/h (2 Bft) 100,00 %
16.03.2021 05:18 4,9 C 4,4 C 3,4 C 91 % 1022,6 hPa 0,0 l/m 0 min 0 min 0 W/m 6,4 km/h (2 Bft) 100,00 %
16.03.2021 05:20 4,8 C 4,4 C 3,4 C 91 % 1022,6 hPa 0,0 l/m 0 min 0 min 0 W/m 6,4 km/h (2 Bft) 100,00 %
16.03.2021 05:22 4,8 C 4,4 C 3,4 C 91 % 1022,6 hPa 0,0 l/m 0 min 0 min 0 W/m 6,4 km/h (2 Bft) 100,00 %
16.03.2021 05:24 4,8 C 4,4 C 3,4 C 92 % 1022,6 hPa 0,0 l/m 0 min 0 min 0 W/m 9,7 km/h (2 Bft) 97,87 %
16.03.2021 05:26 4,9 C 4,4 C 3,4 C 92 % 1022,6 hPa 0,0 l/m 0 min 0 min 0 W/m 9,7 km/h (2 Bft) 100,00 %
16.03.2021 05:28 4,9 C 4,4 C 3,4 C 92 % 1022,6 hPa 0,0 l/m 0 min 0 min 0 W/m 3,2 km/h (1 Bft) 100,00 %
16.03.2021 05:30 4,9 C 4,4 C 3,4 C 92 % 1022,7 hPa 0,0 l/m 0 min 0 min 0 W/m 6,4 km/h (2 Bft) 100,00 %
16.03.2021 05:32 4,9 C 4,4 C 3,4 C 92 % 1022,7 hPa 0,0 l/m 0 min 0 min 0 W/m 9,7 km/h (2 Bft) 100,00 %
16.03.2021 05:34 4,9 C 4,4 C 3,4 C 92 % 1022,7 hPa 0,0 l/m 0 min 0 min 0 W/m 6,4 km/h (2 Bft) 100,00 %
16.03.2021 05:36 4,9 C 4,4 C 3,4 C 92 % 1022,7 hPa 0,0 l/m 0 min 0 min 0 W/m 6,4 km/h (2 Bft) 97,87 %
16.03.2021 05:38 4,8 C 4,4 C 3,4 C 92 % 1022,8 hPa 0,0 l/m 0 min 0 min 0 W/m 6,4 km/h (2 Bft) 100,00 %
16.03.2021 05:40 4,8 C 4,4 C 3,4 C 92 % 1022,7 hPa 0,0 l/m 0 min 0 min 0 W/m 12,9 km/h (3 Bft) 97,87 %
16.03.2021 05:42 4,8 C 4,4 C 3,4 C 92 % 1022,8 hPa 0,0 l/m 0 min 0 min 0 W/m 12,9 km/h (3 Bft) 100,00 %
16.03.2021 05:44 4,8 C 4,4 C 3,4 C 93 % 1022,7 hPa 0,0 l/m 0 min 0 min 0 W/m 6,4 km/h (2 Bft) 100,00 %
16.03.2021 05:46 4,8 C 4,4 C 3,4 C 93 % 1022,8 hPa 0,0 l/m 0 min 0 min 0 W/m 6,4 km/h (2 Bft) 100,00 %
16.03.2021 05:48 4,8 C 4,4 C 3,4 C 93 % 1022,8 hPa 0,0 l/m 0 min 0 min 0 W/m 9,7 km/h (2 Bft) 100,00 %
16.03.2021 05:50 4,8 C 3,9 C 3,4 C 93 % 1022,8 hPa 0,0 l/m 0 min 0 min 0 W/m 9,7 km/h (2 Bft) 100,00 %
16.03.2021 05:52 4,8 C 3,9 C 3,4 C 93 % 1022,9 hPa 0,0 l/m 0 min 0 min 0 W/m 12,9 km/h (3 Bft) 100,00 %
16.03.2021 05:54 4,8 C 3,9 C 3,4 C 93 % 1022,9 hPa 0,0 l/m 0 min 0 min 0 W/m 9,7 km/h (2 Bft) 100,00 %
16.03.2021 05:56 4,8 C 3,9 C 3,4 C 93 % 1023,0 hPa 0,0 l/m 0 min 0 min 0 W/m 12,9 km/h (3 Bft) 100,00 %
16.03.2021 05:58 4,8 C 3,9 C 3,4 C 93 % 1023,0 hPa 0,0 l/m 0 min 0 min 0 W/m 16,1 km/h (3 Bft) 100,00 %
16.03.2021 06:00 4,8 C 3,9 C 3,4 C 93 % 1023,0 hPa 0,0 l/m 0 min 0 min 0 W/m 6,4 km/h (2 Bft) 100,00 %
16.03.2021 06:02 4,8 C 3,9 C 3,4 C 93 % 1023,0 hPa 0,0 l/m 0 min 0 min 0 W/m 12,9 km/h (3 Bft) 100,00 %
16.03.2021 06:04 4,8 C 4,4 C 3,4 C 93 % 1023,0 hPa 0,0 l/m 0 min 0 min 0 W/m 12,9 km/h (3 Bft) 100,00 %
16.03.2021 06:08 4,8 C 4,4 C 3,4 C 93 % 1023,0 hPa 0,0 l/m 0 min 0 min 0 W/m 16,1 km/h (3 Bft) 100,00 %
16.03.2021 06:10 4,8 C 4,4 C 3,4 C 93 % 1023,0 hPa 0,0 l/m 0 min 0 min 0 W/m 9,7 km/h (2 Bft) 100,00 %
16.03.2021 06:12 4,8 C 4,4 C 3,4 C 93 % 1023,1 hPa 0,0 l/m 0 min 0 min 0 W/m 12,9 km/h (3 Bft) 100,00 %
16.03.2021 06:14 4,8 C 4,4 C 3,4 C 94 % 1023,1 hPa 0,0 l/m 0 min 0 min 0 W/m 12,9 km/h (3 Bft) 100,00 %
16.03.2021 06:16 4,8 C 4,4 C 3,4 C 94 % 1023,1 hPa 0,0 l/m 0 min 0 min 0 W/m 9,7 km/h (2 Bft) 97,87 %
16.03.2021 06:18 4,8 C 4,4 C 3,4 C 94 % 1023,0 hPa 0,0 l/m 0 min 0 min 0 W/m 6,4 km/h (2 Bft) 100,00 %
16.03.2021 06:20 4,8 C 4,4 C 3,4 C 94 % 1023,1 hPa 0,0 l/m 0 min 0 min 0 W/m 12,9 km/h (3 Bft) 100,00 %
16.03.2021 06:22 4,8 C 4,4 C 3,4 C 94 % 1023,1 hPa 0,0 l/m 0 min 0 min 0 W/m 12,9 km/h (3 Bft) 100,00 %
16.03.2021 06:24 4,8 C 4,4 C 3,4 C 94 % 1023,1 hPa 0,0 l/m 0 min 0 min 0 W/m 6,4 km/h (2 Bft) 97,83 %
16.03.2021 06:26 4,8 C 4,4 C 3,4 C 94 % 1023,1 hPa 0,0 l/m 0 min 0 min 0 W/m 12,9 km/h (3 Bft) 97,87 %
16.03.2021 06:28 4,8 C 4,4 C 3,4 C 93 % 1023,2 hPa 0,0 l/m 0 min 0 min 0 W/m 9,7 km/h (2 Bft) 100,00 %
16.03.2021 06:30 4,8 C 4,4 C 3,4 C 93 % 1023,2 hPa 0,0 l/m 0 min 0 min 0 W/m 6,4 km/h (2 Bft) 100,00 %
16.03.2021 06:32 4,8 C 4,4 C 3,4 C 93 % 1023,2 hPa 0,0 l/m 0 min 0 min 0 W/m 12,9 km/h (3 Bft) 100,00 %
16.03.2021 06:34 4,8 C 4,4 C 3,4 C 93 % 1023,2 hPa 0,0 l/m 0 min 0 min 0 W/m 9,7 km/h (2 Bft) 100,00 %
16.03.2021 06:36 4,8 C 4,4 C 3,4 C 93 % 1023,2 hPa 0,0 l/m 0 min 0 min 0 W/m 9,7 km/h (2 Bft) 100,00 %
16.03.2021 06:38 4,8 C 4,4 C 3,4 C 93 % 1023,3 hPa 0,0 l/m 0 min 0 min 0 W/m 6,4 km/h (2 Bft) 100,00 %
16.03.2021 06:40 4,8 C 4,4 C 3,4 C 93 % 1023,3 hPa 0,0 l/m 0 min 2 min 0 W/m 6,4 km/h (2 Bft) 97,56 %
16.03.2021 06:42 4,8 C 4,4 C 3,4 C 93 % 1023,2 hPa 0,0 l/m 0 min 0 min 0 W/m 12,9 km/h (3 Bft) 100,00 %
16.03.2021 06:44 4,8 C 4,4 C 3,4 C 94 % 1023,3 hPa 0,0 l/m 0 min 0 min 0 W/m 6,4 km/h (2 Bft) 100,00 %
16.03.2021 06:46 4,8 C 4,4 C 3,4 C 94 % 1023,2 hPa 0,0 l/m 0 min 0 min 0 W/m 6,4 km/h (2 Bft) 98,11 %
16.03.2021 06:48 4,8 C 4,4 C 3,4 C 94 % 1023,3 hPa 0,0 l/m 0 min 0 min 0 W/m 12,9 km/h (3 Bft) 97,83 %
16.03.2021 06:50 4,8 C 4,4 C 3,4 C 94 % 1023,3 hPa 0,0 l/m 0 min 0 min 0 W/m 12,9 km/h (3 Bft) 100,00 %
16.03.2021 06:52 4,8 C 4,4 C 3,4 C 94 % 1023,3 hPa 0,0 l/m 0 min 0 min 3 W/m 6,4 km/h (2 Bft) 97,87 %
16.03.2021 06:54 4,8 C 4,4 C 3,4 C 94 % 1023,3 hPa 0,0 l/m 0 min 0 min 5 W/m 12,9 km/h (3 Bft) 97,87 %
16.03.2021 06:56 4,8 C 4,4 C 3,4 C 94 % 1023,4 hPa 0,0 l/m 0 min 0 min 5 W/m 16,1 km/h (3 Bft) 97,87 %
16.03.2021 06:58 4,8 C 4,4 C 3,4 C 94 % 1023,4 hPa 0,0 l/m 0 min 0 min 7 W/m 12,9 km/h (3 Bft) 93,62 %
16.03.2021 07:00 4,8 C 4,4 C 3,4 C 94 % 1023,4 hPa 0,0 l/m 0 min 0 min 8 W/m 6,4 km/h (2 Bft) 97,87 %
16.03.2021 07:02 4,8 C 4,4 C 3,4 C 94 % 1023,4 hPa 0,0 l/m 0 min 0 min 11 W/m 6,4 km/h (2 Bft) 97,83 %
16.03.2021 07:04 4,7 C 4,4 C 3,4 C 94 % 1023,4 hPa 0,0 l/m 0 min 0 min 13 W/m 6,4 km/h (2 Bft) 97,87 %
16.03.2021 07:06 4,7 C 4,4 C 3,4 C 94 % 1023,4 hPa 0,0 l/m 0 min 0 min 16 W/m 6,4 km/h (2 Bft) 97,87 %
16.03.2021 07:08 4,7 C 4,4 C 3,4 C 94 % 1023,4 hPa 0,0 l/m 0 min 0 min 19 W/m 9,7 km/h (2 Bft) 97,87 %
16.03.2021 07:10 4,8 C 4,4 C 3,4 C 94 % 1023,5 hPa 0,0 l/m 0 min 0 min 18 W/m 9,7 km/h (2 Bft) 97,87 %
16.03.2021 07:12 4,7 C 4,4 C 3,4 C 94 % 1023,4 hPa 0,0 l/m 0 min 0 min 18 W/m 6,4 km/h (2 Bft) 97,87 %
16.03.2021 07:14 4,8 C 4,4 C 3,4 C 94 % 1023,5 hPa 0,0 l/m 0 min 0 min 18 W/m 12,9 km/h (3 Bft) 95,65 %
16.03.2021 07:16 4,7 C 4,4 C 3,4 C 94 % 1023,5 hPa 0,0 l/m 0 min 0 min 19 W/m 6,4 km/h (2 Bft) 90,57 %
16.03.2021 07:18 4,7 C 4,4 C 3,4 C 94 % 1023,4 hPa 0,0 l/m 0 min 0 min 24 W/m 12,9 km/h (3 Bft) 95,74 %
16.03.2021 07:20 4,7 C 4,4 C 3,4 C 94 % 1023,4 hPa 0,0 l/m 0 min 0 min 26 W/m 9,7 km/h (2 Bft) 95,12 %
16.03.2021 07:22 4,7 C 4,4 C 3,4 C 94 % 1023,4 hPa 0,0 l/m 0 min 0 min 23 W/m 12,9 km/h (3 Bft) 93,62 %
16.03.2021 07:24 4,7 C 4,4 C 3,4 C 93 % 1023,5 hPa 0,0 l/m 0 min 0 min 20 W/m 12,9 km/h (3 Bft) 95,65 %
16.03.2021 07:26 4,7 C 4,4 C 3,4 C 93 % 1023,5 hPa 0,0 l/m 0 min 0 min 21 W/m 12,9 km/h (3 Bft) 97,87 %
16.03.2021 07:28 4,7 C 4,4 C 3,4 C 93 % 1023,5 hPa 0,0 l/m 0 min 0 min 24 W/m 6,4 km/h (2 Bft) 95,74 %
16.03.2021 07:30 4,7 C 4,4 C 3,9 C 93 % 1023,5 hPa 0,0 l/m 0 min 0 min 27 W/m 9,7 km/h (2 Bft) 91,49 %
16.03.2021 07:32 4,7 C 4,4 C 3,9 C 93 % 1023,5 hPa 0,0 l/m 0 min 0 min 28 W/m 9,7 km/h (2 Bft) 95,74 %
16.03.2021 07:34 4,8 C 4,4 C 3,9 C 93 % 1023,5 hPa 0,0 l/m 0 min 0 min 30 W/m 9,7 km/h (2 Bft) 95,74 %
16.03.2021 07:36 4,8 C 4,4 C 3,9 C 93 % 1023,5 hPa 0,0 l/m 0 min 0 min 36 W/m 6,4 km/h (2 Bft) 97,83 %
16.03.2021 07:38 4,8 C 4,4 C 3,9 C 93 % 1023,5 hPa 0,0 l/m 0 min 0 min 42 W/m 6,4 km/h (2 Bft) 95,74 %
16.03.2021 07:40 4,8 C 4,4 C 3,9 C 93 % 1023,6 hPa 0,0 l/m 0 min 0 min 41 W/m 9,7 km/h (2 Bft) 97,87 %
16.03.2021 07:42 4,8 C 4,4 C 3,9 C 93 % 1023,6 hPa 0,0 l/m 0 min 0 min 41 W/m 6,4 km/h (2 Bft) 97,87 %
16.03.2021 07:44 4,8 C 4,4 C 3,9 C 93 % 1023,6 hPa 0,0 l/m 0 min 0 min 41 W/m 6,4 km/h (2 Bft) 97,87 %
16.03.2021 07:46 4,8 C 4,4 C 3,9 C 93 % 1023,6 hPa 0,0 l/m 0 min 0 min 41 W/m 6,4 km/h (2 Bft) 97,87 %
16.03.2021 07:48 4,9 C 4,4 C 3,9 C 93 % 1023,6 hPa 0,0 l/m 0 min 0 min 42 W/m 6,4 km/h (2 Bft) 97,83 %
16.03.2021 07:50 4,9 C 4,4 C 3,9 C 93 % 1023,6 hPa 0,0 l/m 0 min 0 min 48 W/m 3,2 km/h (1 Bft) 97,87 %
16.03.2021 07:52 4,9 C 4,4 C 3,9 C 93 % 1023,6 hPa 0,0 l/m 0 min 0 min 49 W/m 9,7 km/h (2 Bft) 97,87 %
16.03.2021 07:54 4,9 C 4,4 C 3,9 C 93 % 1023,6 hPa 0,0 l/m 0 min 0 min 48 W/m 6,4 km/h (2 Bft) 97,87 %
16.03.2021 07:56 5,0 C 5,0 C 3,9 C 93 % 1023,6 hPa 0,0 l/m 0 min 0 min 50 W/m 6,4 km/h (2 Bft) 95,74 %
16.03.2021 07:58 5,0 C 5,0 C 3,9 C 93 % 1023,7 hPa 0,0 l/m 0 min 0 min 54 W/m 12,9 km/h (3 Bft) 97,87 %
16.03.2021 08:00 5,0 C 5,0 C 3,9 C 93 % 1023,7 hPa 0,0 l/m 0 min 0 min 62 W/m 9,7 km/h (2 Bft) 97,83 %
16.03.2021 08:02 5,0 C 5,0 C 3,9 C 93 % 1023,7 hPa 0,0 l/m 0 min 0 min 67 W/m 12,9 km/h (3 Bft) 97,87 %
16.03.2021 08:04 5,0 C 5,0 C 3,9 C 93 % 1023,7 hPa 0,0 l/m 0 min 0 min 68 W/m 9,7 km/h (2 Bft) 97,87 %
16.03.2021 08:06 5,1 C 5,0 C 3,9 C 93 % 1023,7 hPa 0,0 l/m 0 min 0 min 69 W/m 16,1 km/h (3 Bft) 100,00 %
16.03.2021 08:08 5,1 C 5,0 C 4,5 C 93 % 1023,7 hPa 0,0 l/m 0 min 0 min 70 W/m 12,9 km/h (3 Bft) 100,00 %
16.03.2021 08:10 5,1 C 5,0 C 4,5 C 93 % 1023,7 hPa 0,0 l/m 0 min 0 min 75 W/m 9,7 km/h (2 Bft) 100,00 %
16.03.2021 08:12 5,2 C 5,0 C 4,5 C 93 % 1023,7 hPa 0,0 l/m 0 min 0 min 80 W/m 9,7 km/h (2 Bft) 100,00 %
16.03.2021 08:14 5,2 C 5,0 C 4,5 C 94 % 1023,7 hPa 0,0 l/m 0 min 0 min 87 W/m 9,7 km/h (2 Bft) 100,00 %
16.03.2021 08:16 5,2 C 5,0 C 4,5 C 94 % 1023,7 hPa 0,0 l/m 0 min 0 min 93 W/m 12,9 km/h (3 Bft) 54,55 %
16.03.2021 08:18 5,3 C 5,6 C 4,5 C 94 % 1023,7 hPa 0,0 l/m 0 min 0 min 102 W/m 6,4 km/h (2 Bft) 100,00 %
16.03.2021 08:20 5,3 C 5,6 C 4,5 C 94 % 1023,7 hPa 0,0 l/m 0 min 0 min 104 W/m 9,7 km/h (2 Bft) 100,00 %
16.03.2021 08:22 5,4 C 5,6 C 4,5 C 94 % 1023,7 hPa 0,0 l/m 0 min 0 min 106 W/m 6,4 km/h (2 Bft) 100,00 %
16.03.2021 08:24 5,4 C 5,6 C 4,5 C 94 % 1023,7 hPa 0,0 l/m 0 min 0 min 104 W/m 6,4 km/h (2 Bft) 97,83 %
16.03.2021 08:26 5,4 C 5,6 C 4,5 C 94 % 1023,7 hPa 0,0 l/m 0 min 0 min 122 W/m 9,7 km/h (2 Bft) 95,74 %
16.03.2021 08:28 5,5 C 5,6 C 5,0 C 94 % 1023,7 hPa 0,0 l/m 2 min 0 min 140 W/m 9,7 km/h (2 Bft) 97,87 %
16.03.2021 08:30 5,5 C 5,6 C 5,0 C 94 % 1023,7 hPa 0,0 l/m 2 min 0 min 140 W/m 12,9 km/h (3 Bft) 97,87 %
16.03.2021 08:32 5,5 C 5,6 C 5,0 C 94 % 1023,7 hPa 0,0 l/m 2 min 0 min 137 W/m 6,4 km/h (2 Bft) 98,15 %
16.03.2021 08:34 5,5 C 6,1 C 5,0 C 94 % 1023,6 hPa 0,0 l/m 2 min 0 min 136 W/m 12,9 km/h (3 Bft) 97,83 %
16.03.2021 08:36 5,6 C 6,1 C 5,0 C 94 % 1023,7 hPa 0,0 l/m 2 min 0 min 142 W/m 6,4 km/h (2 Bft) 97,87 %
16.03.2021 08:38 5,6 C 6,1 C 5,0 C 94 % 1023,7 hPa 0,0 l/m 2 min 0 min 148 W/m 9,7 km/h (2 Bft) 97,87 %
16.03.2021 08:40 5,6 C 6,1 C 5,0 C 93 % 1023,7 hPa 0,0 l/m 2 min 0 min 148 W/m 9,7 km/h (2 Bft) 97,87 %
16.03.2021 08:42 5,7 C 6,1 C 5,0 C 93 % 1023,7 hPa 0,2 l/m 2 min 0 min 162 W/m 16,1 km/h (3 Bft) 97,87 %
16.03.2021 08:44 5,7 C 6,1 C 5,0 C 93 % 1023,7 hPa 0,0 l/m 2 min 0 min 192 W/m 9,7 km/h (2 Bft) 97,87 %
16.03.2021 08:46 5,8 C 6,1 C 5,6 C 93 % 1023,8 hPa 0,0 l/m 2 min 0 min 200 W/m 12,9 km/h (3 Bft) 97,83 %
16.03.2021 08:48 5,8 C 6,7 C 5,6 C 93 % 1023,7 hPa 0,0 l/m 2 min 0 min 209 W/m 9,7 km/h (2 Bft) 97,87 %
16.03.2021 08:50 5,9 C 6,7 C 5,6 C 93 % 1023,7 hPa 0,0 l/m 2 min 0 min 217 W/m 19,3 km/h (3 Bft) 97,87 %
16.03.2021 08:52 5,9 C 6,7 C 5,6 C 93 % 1023,7 hPa 0,0 l/m 2 min 0 min 203 W/m 12,9 km/h (3 Bft) 95,74 %
16.03.2021 08:54 6,0 C 6,7 C 5,6 C 92 % 1023,7 hPa 0,0 l/m 2 min 0 min 204 W/m 12,9 km/h (3 Bft) 93,62 %
16.03.2021 08:56 6,0 C 6,7 C 5,6 C 92 % 1023,8 hPa 0,0 l/m 2 min 0 min 199 W/m 12,9 km/h (3 Bft) 95,74 %
16.03.2021 08:58 6,0 C 6,7 C 5,6 C 92 % 1023,9 hPa 0,0 l/m 2 min 0 min 212 W/m 19,3 km/h (3 Bft) 97,83 %
16.03.2021 09:00 6,1 C 6,7 C 5,6 C 92 % 1023,9 hPa 0,0 l/m 2 min 0 min 244 W/m 19,3 km/h (3 Bft) 97,87 %
16.03.2021 09:02 6,1 C 6,7 C 5,6 C 92 % 1023,9 hPa 0,0 l/m 2 min 0 min 170 W/m 19,3 km/h (3 Bft) 97,87 %
16.03.2021 09:04 6,1 C 6,7 C 5,6 C 92 % 1023,9 hPa 0,0 l/m 2 min 0 min 190 W/m 12,9 km/h (3 Bft) 97,87 %
16.03.2021 09:06 6,2 C 6,7 C 6,1 C 92 % 1023,9 hPa 0,0 l/m 2 min 0 min 191 W/m 19,3 km/h (3 Bft) 97,87 %
16.03.2021 09:08 6,3 C 7,2 C 6,1 C 92 % 1023,9 hPa 0,0 l/m 2 min 0 min 195 W/m 12,9 km/h (3 Bft) 97,87 %
16.03.2021 09:10 6,3 C 7,8 C 6,1 C 91 % 1023,9 hPa 0,0 l/m 2 min 0 min 268 W/m 16,1 km/h (3 Bft) 97,83 %
16.03.2021 09:12 6,4 C 8,3 C 6,7 C 91 % 1023,9 hPa 0,0 l/m 2 min 0 min 325 W/m 12,9 km/h (3 Bft) 95,74 %
16.03.2021 09:14 6,4 C 8,3 C 6,7 C 91 % 1023,9 hPa 0,0 l/m 2 min 0 min 242 W/m 19,3 km/h (3 Bft) 97,87 %
16.03.2021 09:16 6,4 C 7,8 C 6,7 C 91 % 1024,0 hPa 0,0 l/m 0 min 0 min 172 W/m 16,1 km/h (3 Bft) 97,87 %
16.03.2021 09:18 6,5 C 7,2 C 6,1 C 90 % 1024,0 hPa 0,0 l/m 0 min 0 min 123 W/m 16,1 km/h (3 Bft) 97,87 %
16.03.2021 09:20 6,4 C 6,7 C 5,6 C 90 % 1024,0 hPa 0,0 l/m 0 min 0 min 104 W/m 16,1 km/h (3 Bft) 97,83 %
16.03.2021 09:22 6,4 C 6,1 C 5,6 C 89 % 1024,1 hPa 0,0 l/m 0 min 0 min 95 W/m 16,1 km/h (3 Bft) 94,74 %
16.03.2021 09:24 6,4 C 6,1 C 5,6 C 89 % 1024,1 hPa 0,0 l/m 0 min 0 min 97 W/m 16,1 km/h (3 Bft) 97,83 %
16.03.2021 09:26 6,4 C 6,1 C 5,6 C 89 % 1024,1 hPa 0,0 l/m 0 min 0 min 84 W/m 16,1 km/h (3 Bft) 95,74 %
16.03.2021 09:28 6,3 C 6,1 C 5,0 C 88 % 1024,1 hPa 0,0 l/m 0 min 0 min 110 W/m 16,1 km/h (3 Bft) 97,87 %
16.03.2021 09:30 6,3 C 6,1 C 5,0 C 88 % 1024,1 hPa 0,0 l/m 0 min 0 min 138 W/m 22,5 km/h (4 Bft) 97,87 %
16.03.2021 09:32 6,3 C 6,1 C 5,6 C 88 % 1024,1 hPa 0,0 l/m 2 min 0 min 207 W/m 22,5 km/h (4 Bft) 97,87 %
16.03.2021 09:34 6,3 C 6,7 C 5,6 C 88 % 1024,1 hPa 0,0 l/m 2 min 0 min 224 W/m 16,1 km/h (3 Bft) 95,74 %
16.03.2021 09:36 6,4 C 6,7 C 5,6 C 88 % 1024,1 hPa 0,0 l/m 2 min 0 min 217 W/m 19,3 km/h (3 Bft) 97,83 %
16.03.2021 09:38 6,4 C 7,2 C 6,1 C 88 % 1024,1 hPa 0,0 l/m 2 min 0 min 234 W/m 19,3 km/h (3 Bft) 97,87 %
16.03.2021 09:40 6,4 C 7,8 C 6,1 C 88 % 1024,1 hPa 0,0 l/m 2 min 0 min 294 W/m 19,3 km/h (3 Bft) 97,87 %
16.03.2021 09:42 6,5 C 7,8 C 6,7 C 88 % 1024,1 hPa 0,0 l/m 2 min 0 min 288 W/m 16,1 km/h (3 Bft) 95,74 %
16.03.2021 09:44 6,5 C 8,3 C 6,7 C 88 % 1024,1 hPa 0,0 l/m 2 min 0 min 265 W/m 19,3 km/h (3 Bft) 93,62 %
16.03.2021 09:46 6,6 C 8,3 C 6,7 C 88 % 1024,2 hPa 0,0 l/m 2 min 0 min 286 W/m 9,7 km/h (2 Bft) 97,87 %
16.03.2021 09:48 6,6 C 8,3 C 6,7 C 88 % 1024,1 hPa 0,0 l/m 2 min 0 min 285 W/m 22,5 km/h (4 Bft) 95,65 %
16.03.2021 09:50 6,7 C 8,3 C 6,7 C 88 % 1024,1 hPa 0,0 l/m 2 min 0 min 268 W/m 12,9 km/h (3 Bft) 97,87 %
16.03.2021 09:52 6,8 C 7,8 C 6,7 C 87 % 1024,1 hPa 0,0 l/m 2 min 0 min 268 W/m 19,3 km/h (3 Bft) 97,87 %
16.03.2021 09:54 6,8 C 7,8 C 6,7 C 87 % 1024,1 hPa 0,0 l/m 2 min 0 min 226 W/m 16,1 km/h (3 Bft) 93,62 %
16.03.2021 09:56 6,8 C 7,8 C 6,7 C 87 % 1024,0 hPa 0,0 l/m 0 min 0 min 205 W/m 16,1 km/h (3 Bft) 93,62 %
16.03.2021 09:58 6,9 C 7,2 C 6,1 C 87 % 1024,0 hPa 0,0 l/m 0 min 0 min 196 W/m 12,9 km/h (3 Bft) 93,62 %
16.03.2021 10:00 6,9 C 7,2 C 6,1 C 87 % 1024,0 hPa 0,0 l/m 0 min 0 min 182 W/m 12,9 km/h (3 Bft) 95,65 %
16.03.2021 10:02 6,9 C 7,2 C 6,1 C 87 % 1024,1 hPa 0,0 l/m 0 min 0 min 137 W/m 9,7 km/h (2 Bft) 95,74 %
16.03.2021 10:04 6,9 C 7,2 C 6,1 C 87 % 1024,1 hPa 0,0 l/m 0 min 0 min 147 W/m 22,5 km/h (4 Bft) 93,62 %
16.03.2021 10:06 6,9 C 7,2 C 5,6 C 87 % 1024,1 hPa 0,0 l/m 0 min 0 min 171 W/m 16,1 km/h (3 Bft) 91,49 %
16.03.2021 10:08 6,9 C 7,2 C 5,6 C 87 % 1024,2 hPa 0,0 l/m 0 min 0 min 190 W/m 12,9 km/h (3 Bft) 96,55 %
16.03.2021 10:10 6,9 C 7,2 C 5,6 C 87 % 1024,2 hPa 0,0 l/m 0 min 0 min 216 W/m 22,5 km/h (4 Bft) 97,22 %
16.03.2021 10:12 6,9 C 7,2 C 6,1 C 87 % 1024,1 hPa 0,0 l/m 2 min 0 min 238 W/m 22,5 km/h (4 Bft) 95,65 %
16.03.2021 10:14 6,9 C 7,2 C 6,1 C 86 % 1024,1 hPa 0,0 l/m 0 min 0 min 195 W/m 19,3 km/h (3 Bft) 93,62 %
16.03.2021 10:16 6,9 C 7,2 C 6,1 C 86 % 1024,2 hPa 0,0 l/m 0 min 0 min 131 W/m 12,9 km/h (3 Bft) 93,62 %
16.03.2021 10:18 6,9 C 6,7 C 5,6 C 86 % 1024,1 hPa 0,0 l/m 0 min 0 min 78 W/m 12,9 km/h (3 Bft) 95,74 %
16.03.2021 10:20 6,9 C 6,7 C 5,6 C 86 % 1024,1 hPa 0,0 l/m 0 min 0 min 67 W/m 16,1 km/h (3 Bft) 93,62 %
16.03.2021 10:22 6,8 C 6,7 C 5,0 C 86 % 1024,1 hPa 0,0 l/m 0 min 0 min 86 W/m 16,1 km/h (3 Bft) 95,74 %
16.03.2021 10:24 6,8 C 6,7 C 5,0 C 86 % 1024,1 hPa 0,0 l/m 0 min 0 min 106 W/m 19,3 km/h (3 Bft) 93,88 %
16.03.2021 10:26 6,8 C 6,7 C 5,0 C 86 % 1024,1 hPa 0,0 l/m 0 min 0 min 118 W/m 22,5 km/h (4 Bft) 93,62 %
16.03.2021 10:28 6,8 C 6,7 C 5,0 C 86 % 1024,1 hPa 0,0 l/m 0 min 0 min 129 W/m 12,9 km/h (3 Bft) 93,62 %
16.03.2021 10:30 6,8 C 6,7 C 5,0 C 86 % 1024,1 hPa 0,0 l/m 0 min 0 min 136 W/m 6,4 km/h (2 Bft) 95,74 %
16.03.2021 10:32 6,8 C 6,7 C 5,0 C 86 % 1024,1 hPa 0,0 l/m 0 min 0 min 145 W/m 12,9 km/h (3 Bft) 93,62 %
16.03.2021 10:34 6,8 C 6,7 C 5,6 C 86 % 1024,2 hPa 0,0 l/m 0 min 0 min 155 W/m 12,9 km/h (3 Bft) 95,65 %
16.03.2021 10:36 6,8 C 6,7 C 5,6 C 86 % 1024,2 hPa 0,0 l/m 0 min 0 min 166 W/m 12,9 km/h (3 Bft) 95,74 %
16.03.2021 10:38 6,8 C 7,2 C 5,6 C 86 % 1024,1 hPa 0,0 l/m 0 min 0 min 186 W/m 16,1 km/h (3 Bft) 93,62 %
16.03.2021 10:40 6,8 C 7,2 C 5,6 C 86 % 1024,1 hPa 0,0 l/m 0 min 0 min 204 W/m 12,9 km/h (3 Bft) 93,62 %
16.03.2021 10:42 6,8 C 7,2 C 5,6 C 86 % 1024,2 hPa 0,0 l/m 0 min 0 min 202 W/m 16,1 km/h (3 Bft) 95,74 %
16.03.2021 10:44 6,9 C 7,2 C 6,1 C 86 % 1024,2 hPa 0,0 l/m 0 min 0 min 190 W/m 12,9 km/h (3 Bft) 95,74 %
16.03.2021 10:46 6,9 C 7,2 C 6,1 C 86 % 1024,1 hPa 0,0 l/m 0 min 0 min 178 W/m 16,1 km/h (3 Bft) 100,00 %
16.03.2021 10:48 6,9 C 7,2 C 6,1 C 86 % 1024,1 hPa 0,0 l/m 0 min 0 min 191 W/m 9,7 km/h (2 Bft) 100,00 %
16.03.2021 10:50 7,0 C 7,2 C 6,1 C 86 % 1024,1 hPa 0,0 l/m 0 min 0 min 200 W/m 16,1 km/h (3 Bft) 100,00 %
16.03.2021 10:52 7,0 C 7,8 C 6,1 C 86 % 1024,1 hPa 0,0 l/m 0 min 0 min 223 W/m 12,9 km/h (3 Bft) 100,00 %
16.03.2021 10:54 7,0 C 7,8 C 6,1 C 86 % 1024,1 hPa 0,0 l/m 2 min 0 min 274 W/m 16,1 km/h (3 Bft) 100,00 %
16.03.2021 10:56 7,1 C 8,3 C 7,3 C 86 % 1024,1 hPa 0,0 l/m 2 min 0 min 355 W/m 19,3 km/h (3 Bft) 100,00 %
16.03.2021 10:58 7,2 C 8,9 C 7,8 C 85 % 1024,1 hPa 0,0 l/m 2 min 0 min 416 W/m 29,0 km/h (5 Bft) 97,83 %
16.03.2021 11:00 7,3 C 8,9 C 7,3 C 85 % 1024,1 hPa 0,0 l/m 0 min 0 min 264 W/m 29,0 km/h (5 Bft) 100,00 %
16.03.2021 11:02 7,4 C 8,3 C 7,3 C 84 % 1024,1 hPa 0,0 l/m 0 min 0 min 266 W/m 22,5 km/h (4 Bft) 100,00 %
16.03.2021 11:04 7,4 C 8,3 C 7,3 C 84 % 1024,0 hPa 0,0 l/m 2 min 0 min 295 W/m 16,1 km/h (3 Bft) 100,00 %
16.03.2021 11:06 7,4 C 8,9 C 7,3 C 83 % 1024,0 hPa 0,0 l/m 2 min 0 min 296 W/m 22,5 km/h (4 Bft) 100,00 %
16.03.2021 11:08 7,5 C 8,9 C 7,3 C 84 % 1024,1 hPa 0,0 l/m 2 min 0 min 303 W/m 22,5 km/h (4 Bft) 100,00 %
16.03.2021 11:10 7,5 C 9,4 C 7,8 C 83 % 1024,1 hPa 0,0 l/m 2 min 0 min 342 W/m 16,1 km/h (3 Bft) 100,00 %
16.03.2021 11:12 7,6 C 9,4 C 7,8 C 83 % 1024,1 hPa 0,0 l/m 0 min 0 min 258 W/m 9,7 km/h (2 Bft) 100,00 %
16.03.2021 11:14 7,6 C 9,4 C 7,3 C 83 % 1024,1 hPa 0,0 l/m 0 min 0 min 227 W/m 16,1 km/h (3 Bft) 100,00 %
16.03.2021 11:16 7,7 C 8,9 C 7,8 C 83 % 1024,1 hPa 0,0 l/m 0 min 0 min 271 W/m 16,1 km/h (3 Bft) 100,00 %
16.03.2021 11:18 7,7 C 8,9 C 7,8 C 83 % 1024,1 hPa 0,0 l/m 2 min 0 min 408 W/m 9,7 km/h (2 Bft) 100,00 %
16.03.2021 11:20 7,8 C 10,0 C 8,4 C 83 % 1024,1 hPa 0,0 l/m 2 min 0 min 408 W/m 9,7 km/h (2 Bft) 100,00 %
16.03.2021 11:22 7,9 C 10,6 C 8,9 C 83 % 1024,1 hPa 0,0 l/m 2 min 0 min 333 W/m 12,9 km/h (3 Bft) 100,00 %
16.03.2021 11:24 7,9 C 10,6 C 8,4 C 82 % 1024,1 hPa 0,0 l/m 2 min 0 min 371 W/m 12,9 km/h (3 Bft) 100,00 %
16.03.2021 11:26 7,9 C 10,0 C 8,4 C 82 % 1024,2 hPa 0,0 l/m 2 min 0 min 283 W/m 16,1 km/h (3 Bft) 100,00 %
16.03.2021 11:28 8,0 C 10,0 C 7,8 C 82 % 1024,1 hPa 0,0 l/m 2 min 0 min 284 W/m 12,9 km/h (3 Bft) 100,00 %
16.03.2021 11:30 8,0 C 10,0 C 7,8 C 83 % 1024,0 hPa 0,0 l/m 0 min 0 min 237 W/m 16,1 km/h (3 Bft) 97,87 %
16.03.2021 11:32 8,0 C 9,4 C 7,3 C 82 % 1024,1 hPa 0,0 l/m 0 min 0 min 165 W/m 19,3 km/h (3 Bft) 100,00 %
16.03.2021 11:34 8,0 C 8,9 C 7,3 C 82 % 1024,0 hPa 0,0 l/m 0 min 0 min 151 W/m 9,7 km/h (2 Bft) 100,00 %
16.03.2021 11:36 8,0 C 9,4 C 6,7 C 82 % 1024,1 hPa 0,0 l/m 0 min 0 min 186 W/m 6,4 km/h (2 Bft) 100,00 %
16.03.2021 11:38 8,0 C 10,0 C 7,8 C 82 % 1024,1 hPa 0,0 l/m 0 min 0 min 258 W/m 12,9 km/h (3 Bft) 100,00 %
16.03.2021 11:40 8,1 C 11,1 C 10,0 C 82 % 1024,0 hPa 0,0 l/m 2 min 0 min 648 W/m 9,7 km/h (2 Bft) 100,00 %
16.03.2021 11:42 8,2 C 12,2 C 11,1 C 82 % 1024,0 hPa 0,0 l/m 2 min 0 min 651 W/m 22,5 km/h (4 Bft) 100,00 %
16.03.2021 11:44 8,3 C 12,2 C 11,1 C 81 % 1024,0 hPa 0,0 l/m 2 min 0 min 576 W/m 16,1 km/h (3 Bft) 100,00 %
16.03.2021 11:46 8,4 C 11,1 C 9,5 C 80 % 1023,9 hPa 0,0 l/m 2 min 0 min 422 W/m 22,5 km/h (4 Bft) 100,00 %
16.03.2021 11:48 8,4 C 11,1 C 8,9 C 80 % 1024,0 hPa 0,0 l/m 2 min 0 min 383 W/m 19,3 km/h (3 Bft) 100,00 %
16.03.2021 11:50 8,4 C 11,1 C 9,5 C 80 % 1023,9 hPa 0,0 l/m 2 min 0 min 460 W/m 16,1 km/h (3 Bft) 100,00 %
16.03.2021 11:52 8,5 C 11,7 C 10,0 C 79 % 1023,9 hPa 0,0 l/m 2 min 0 min 600 W/m 12,9 km/h (3 Bft) 100,00 %
16.03.2021 11:54 8,6 C 12,2 C 10,0 C 80 % 1023,9 hPa 0,0 l/m 2 min 0 min 496 W/m 12,9 km/h (3 Bft) 100,00 %
16.03.2021 11:56 8,8 C 12,2 C 10,0 C 80 % 1023,9 hPa 0,0 l/m 2 min 0 min 440 W/m 19,3 km/h (3 Bft) 100,00 %
16.03.2021 11:58 8,8 C 11,1 C 9,5 C 79 % 1023,9 hPa 0,0 l/m 2 min 0 min 428 W/m 12,9 km/h (3 Bft) 100,00 %
16.03.2021 12:00 8,6 C 10,0 C 8,4 C 78 % 1023,9 hPa 0,0 l/m 2 min 0 min 325 W/m 19,3 km/h (3 Bft) 100,00 %
16.03.2021 12:02 8,6 C 11,1 C 9,5 C 79 % 1023,8 hPa 0,0 l/m 2 min 0 min 364 W/m 12,9 km/h (3 Bft) 100,00 %
16.03.2021 12:04 8,8 C 11,1 C 9,5 C 79 % 1023,8 hPa 0,0 l/m 2 min 0 min 381 W/m 12,9 km/h (3 Bft) 100,00 %
16.03.2021 12:08 8,8 C 10,6 C 8,9 C 79 % 1023,8 hPa 0,0 l/m 4 min 0 min 389 W/m 25,7 km/h (4 Bft) 100,00 %
16.03.2021 12:10 8,8 C 10,0 C 8,4 C 79 % 1023,8 hPa 0,0 l/m 2 min 0 min 378 W/m 25,7 km/h (4 Bft) 100,00 %
16.03.2021 12:12 8,8 C 9,4 C 7,8 C 78 % 1023,8 hPa 0,0 l/m 0 min 0 min 224 W/m 25,7 km/h (4 Bft) 100,00 %
16.03.2021 12:14 8,6 C 9,4 C 7,3 C 79 % 1023,7 hPa 0,0 l/m 0 min 0 min 255 W/m 22,5 km/h (4 Bft) 100,00 %
16.03.2021 12:16 8,6 C 9,4 C 7,3 C 79 % 1023,8 hPa 0,0 l/m 0 min 0 min 291 W/m 22,5 km/h (4 Bft) 100,00 %
16.03.2021 12:18 8,5 C 9,4 C 7,3 C 79 % 1023,8 hPa 0,0 l/m 2 min 0 min 335 W/m 22,5 km/h (4 Bft) 100,00 %
16.03.2021 12:20 8,5 C 9,4 C 7,3 C 79 % 1023,9 hPa 0,0 l/m 2 min 0 min 351 W/m 16,1 km/h (3 Bft) 100,00 %
16.03.2021 12:22 8,5 C 10,0 C 7,3 C 79 % 1023,8 hPa 0,0 l/m 2 min 0 min 367 W/m 12,9 km/h (3 Bft) 100,00 %
16.03.2021 12:24 8,5 C 10,0 C 7,3 C 78 % 1023,8 hPa 0,0 l/m 2 min 0 min 391 W/m 16,1 km/h (3 Bft) 100,00 %
16.03.2021 12:26 8,5 C 10,0 C 7,3 C 78 % 1023,8 hPa 0,0 l/m 2 min 0 min 373 W/m 25,7 km/h (4 Bft) 100,00 %
16.03.2021 12:28 8,5 C 9,4 C 7,3 C 76 % 1023,8 hPa 0,0 l/m 2 min 0 min 352 W/m 19,3 km/h (3 Bft) 97,87 %
16.03.2021 12:30 8,5 C 9,4 C 7,3 C 76 % 1023,8 hPa 0,0 l/m 2 min 0 min 302 W/m 16,1 km/h (3 Bft) 95,74 %
16.03.2021 12:32 8,4 C 9,4 C 7,3 C 76 % 1023,7 hPa 0,0 l/m 0 min 0 min 275 W/m 25,7 km/h (4 Bft) 95,65 %
16.03.2021 12:34 8,4 C 9,4 C 7,3 C 76 % 1023,7 hPa 0,0 l/m 0 min 0 min 253 W/m 29,0 km/h (5 Bft) 95,74 %
16.03.2021 12:36 8,5 C 9,4 C 6,7 C 76 % 1023,7 hPa 0,0 l/m 0 min 0 min 195 W/m 22,5 km/h (4 Bft) 95,74 %
16.03.2021 12:38 8,5 C 8,9 C 6,7 C 75 % 1023,8 hPa 0,0 l/m 0 min 0 min 137 W/m 16,1 km/h (3 Bft) 95,74 %
16.03.2021 12:40 8,5 C 8,3 C 6,1 C 77 % 1023,8 hPa 0,0 l/m 0 min 2 min 82 W/m 25,7 km/h (4 Bft) 93,62 %
16.03.2021 12:42 8,3 C 7,2 C 5,0 C 80 % 1023,9 hPa 0,0 l/m 0 min 2 min 71 W/m 29,0 km/h (5 Bft) 95,74 %
16.03.2021 12:44 7,9 C 6,7 C 4,5 C 81 % 1023,9 hPa 0,0 l/m 0 min 2 min 74 W/m 22,5 km/h (4 Bft) 93,48 %
16.03.2021 12:46 7,6 C 6,7 C 3,9 C 83 % 1023,9 hPa 0,0 l/m 0 min 2 min 83 W/m 19,3 km/h (3 Bft) 95,74 %
16.03.2021 12:48 7,4 C 6,1 C 3,9 C 84 % 1023,9 hPa 0,0 l/m 0 min 2 min 128 W/m 9,7 km/h (2 Bft) 95,74 %
16.03.2021 12:50 7,2 C 6,7 C 3,9 C 85 % 1023,9 hPa 0,0 l/m 0 min 2 min 165 W/m 6,4 km/h (2 Bft) 95,74 %
16.03.2021 12:52 7,1 C 6,7 C 3,9 C 86 % 1023,8 hPa 0,0 l/m 0 min 2 min 172 W/m 12,9 km/h (3 Bft) 95,74 %
16.03.2021 12:54 7,0 C 7,2 C 3,9 C 87 % 1023,9 hPa 0,0 l/m 0 min 2 min 185 W/m 12,9 km/h (3 Bft) 95,74 %
16.03.2021 12:56 7,1 C 7,2 C 4,5 C 88 % 1023,9 hPa 0,0 l/m 0 min 2 min 191 W/m 9,7 km/h (2 Bft) 93,48 %
16.03.2021 12:58 7,1 C 7,8 C 4,5 C 88 % 1023,8 hPa 0,0 l/m 0 min 0 min 250 W/m 6,4 km/h (2 Bft) 93,62 %
16.03.2021 13:00 7,1 C 8,3 C 5,0 C 89 % 1023,8 hPa 0,0 l/m 2 min 2 min 335 W/m 16,1 km/h (3 Bft) 95,74 %
16.03.2021 13:02 7,3 C 8,9 C 5,0 C 89 % 1023,8 hPa 0,0 l/m 2 min 2 min 367 W/m 12,9 km/h (3 Bft) 95,74 %
16.03.2021 13:04 7,3 C 9,4 C 5,0 C 89 % 1023,8 hPa 0,0 l/m 2 min 2 min 439 W/m 12,9 km/h (3 Bft) 95,74 %
16.03.2021 13:06 7,5 C 11,1 C 5,6 C 88 % 1023,8 hPa 0,0 l/m 2 min 2 min 546 W/m 12,9 km/h (3 Bft) 95,74 %
16.03.2021 13:08 7,6 C 11,7 C 6,1 C 88 % 1023,8 hPa 0,0 l/m 2 min 0 min 564 W/m 22,5 km/h (4 Bft) 95,65 %
16.03.2021 13:10 7,8 C 11,7 C 6,1 C 87 % 1023,8 hPa 0,0 l/m 2 min 0 min 452 W/m 19,3 km/h (3 Bft) 93,62 %
16.03.2021 13:12 7,9 C 11,7 C 6,1 C 85 % 1023,8 hPa 0,0 l/m 2 min 0 min 442 W/m 16,1 km/h (3 Bft) 93,62 %
16.03.2021 13:14 8,0 C 11,1 C 6,1 C 84 % 1023,7 hPa 0,0 l/m 2 min 0 min 418 W/m 22,5 km/h (4 Bft) 95,74 %
16.03.2021 13:16 8,0 C 10,6 C 6,7 C 84 % 1023,7 hPa 0,0 l/m 2 min 0 min 402 W/m 16,1 km/h (3 Bft) 95,74 %
16.03.2021 13:18 8,1 C 10,6 C 6,7 C 83 % 1023,7 hPa 0,0 l/m 2 min 0 min 436 W/m 16,1 km/h (3 Bft) 97,87 %
16.03.2021 13:20 8,1 C 10,0 C 6,7 C 83 % 1023,7 hPa 0,0 l/m 2 min 0 min 362 W/m 12,9 km/h (3 Bft) 97,83 %
16.03.2021 13:22 8,3 C 10,0 C 6,7 C 83 % 1023,7 hPa 0,0 l/m 2 min 0 min 344 W/m 16,1 km/h (3 Bft) 100,00 %
16.03.2021 13:24 8,2 C 9,4 C 6,7 C 82 % 1023,6 hPa 0,0 l/m 2 min 0 min 364 W/m 19,3 km/h (3 Bft) 100,00 %
16.03.2021 13:26 8,3 C 10,0 C 6,7 C 82 % 1023,5 hPa 0,0 l/m 2 min 0 min 396 W/m 12,9 km/h (3 Bft) 95,74 %
16.03.2021 13:28 8,4 C 10,0 C 6,7 C 82 % 1023,6 hPa 0,0 l/m 2 min 0 min 391 W/m 12,9 km/h (3 Bft) 97,87 %
16.03.2021 13:30 8,4 C 10,6 C 7,3 C 81 % 1023,5 hPa 0,0 l/m 2 min 0 min 445 W/m 9,7 km/h (2 Bft) 97,83 %
16.03.2021 13:32 8,5 C 10,6 C 7,3 C 81 % 1023,5 hPa 0,0 l/m 2 min 0 min 438 W/m 12,9 km/h (3 Bft) 100,00 %
16.03.2021 13:34 8,6 C 10,6 C 7,3 C 81 % 1023,5 hPa 0,0 l/m 2 min 0 min 411 W/m 12,9 km/h (3 Bft) 100,00 %
16.03.2021 13:36 8,6 C 10,6 C 6,7 C 81 % 1023,5 hPa 0,0 l/m 2 min 0 min 318 W/m 9,7 km/h (2 Bft) 97,87 %
16.03.2021 13:38 8,6 C 10,6 C 7,3 C 80 % 1023,5 hPa 0,0 l/m 2 min 0 min 388 W/m 19,3 km/h (3 Bft) 100,00 %
16.03.2021 13:40 8,6 C 11,7 C 7,3 C 80 % 1023,5 hPa 0,0 l/m 2 min 0 min 453 W/m 16,1 km/h (3 Bft) 97,87 %
16.03.2021 13:42 8,7 C 11,1 C 7,3 C 81 % 1023,5 hPa 0,0 l/m 2 min 0 min 447 W/m 22,5 km/h (4 Bft) 100,00 %
16.03.2021 13:44 8,8 C 11,1 C 7,3 C 81 % 1023,4 hPa 0,0 l/m 2 min 0 min 465 W/m 12,9 km/h (3 Bft) 97,87 %
16.03.2021 13:46 8,8 C 10,6 C 7,3 C 81 % 1023,4 hPa 0,0 l/m 2 min 0 min 291 W/m 12,9 km/h (3 Bft) 97,87 %
16.03.2021 13:48 8,8 C 9,4 C 7,3 C 81 % 1023,4 hPa 0,0 l/m 0 min 0 min 238 W/m 16,1 km/h (3 Bft) 100,00 %
16.03.2021 13:50 8,6 C 8,9 C 6,7 C 81 % 1023,4 hPa 0,0 l/m 0 min 0 min 279 W/m 32,2 km/h (5 Bft) 100,00 %
16.03.2021 13:52 8,4 C 8,3 C 6,1 C 81 % 1023,4 hPa 0,0 l/m 0 min 0 min 284 W/m 19,3 km/h (3 Bft) 97,87 %
16.03.2021 13:54 8,1 C 8,3 C 6,1 C 82 % 1023,5 hPa 0,0 l/m 2 min 0 min 293 W/m 19,3 km/h (3 Bft) 97,87 %
16.03.2021 13:56 8,0 C 8,9 C 6,1 C 82 % 1023,5 hPa 0,0 l/m 2 min 0 min 354 W/m 19,3 km/h (3 Bft) 95,65 %
16.03.2021 13:58 7,9 C 9,4 C 6,1 C 83 % 1023,5 hPa 0,0 l/m 2 min 0 min 383 W/m 12,9 km/h (3 Bft) 97,87 %
16.03.2021 14:00 7,9 C 10,0 C 6,1 C 84 % 1023,5 hPa 0,0 l/m 2 min 0 min 422 W/m 19,3 km/h (3 Bft) 97,87 %
16.03.2021 14:02 8,0 C 11,1 C 6,1 C 84 % 1023,5 hPa 0,0 l/m 2 min 0 min 528 W/m 16,1 km/h (3 Bft) 97,87 %
16.03.2021 14:04 8,1 C 12,8 C 6,7 C 85 % 1023,4 hPa 0,0 l/m 2 min 0 min 605 W/m 12,9 km/h (3 Bft) 95,74 %
16.03.2021 14:06 8,3 C 13,3 C 6,7 C 84 % 1023,5 hPa 0,0 l/m 2 min 0 min 687 W/m 19,3 km/h (3 Bft) 95,65 %
16.03.2021 14:08 8,4 C 12,8 C 6,7 C 84 % 1023,5 hPa 0,0 l/m 2 min 0 min 609 W/m 12,9 km/h (3 Bft) 97,87 %
16.03.2021 14:10 8,5 C 12,2 C 7,3 C 84 % 1023,5 hPa 0,0 l/m 2 min 0 min 447 W/m 19,3 km/h (3 Bft) 97,87 %
16.03.2021 14:12 8,6 C 12,8 C 7,3 C 85 % 1023,5 hPa 0,0 l/m 2 min 0 min 524 W/m 19,3 km/h (3 Bft) 97,87 %
16.03.2021 14:14 8,7 C 12,8 C 7,3 C 84 % 1023,5 hPa 0,0 l/m 2 min 0 min 608 W/m 12,9 km/h (3 Bft) 95,74 %
16.03.2021 14:16 8,8 C 13,3 C 7,3 C 85 % 1023,4 hPa 0,0 l/m 2 min 0 min 629 W/m 16,1 km/h (3 Bft) 97,87 %
16.03.2021 14:18 8,9 C 13,3 C 7,8 C 84 % 1023,4 hPa 0,0 l/m 2 min 0 min 684 W/m 16,1 km/h (3 Bft) 97,83 %
16.03.2021 14:20 9,0 C 14,4 C 7,8 C 84 % 1023,4 hPa 0,0 l/m 2 min 0 min 730 W/m 12,9 km/h (3 Bft) 93,62 %
16.03.2021 14:22 9,2 C 13,9 C 7,8 C 84 % 1023,3 hPa 0,0 l/m 2 min 0 min 588 W/m 12,9 km/h (3 Bft) 97,87 %
16.03.2021 14:24 9,3 C 12,8 C 7,8 C 84 % 1023,3 hPa 0,0 l/m 2 min 0 min 363 W/m 16,1 km/h (3 Bft) 97,87 %
16.03.2021 14:26 9,3 C 11,1 C 7,8 C 83 % 1023,4 hPa 0,0 l/m 2 min 0 min 305 W/m 16,1 km/h (3 Bft) 97,87 %
16.03.2021 14:28 9,0 C 10,6 C 7,3 C 82 % 1023,4 hPa 0,0 l/m 2 min 0 min 290 W/m 16,1 km/h (3 Bft) 94,29 %
16.03.2021 14:30 9,0 C 11,1 C 7,3 C 83 % 1023,4 hPa 0,0 l/m 2 min 0 min 290 W/m 19,3 km/h (3 Bft) 97,87 %
16.03.2021 14:32 8,9 C 11,7 C 7,3 C 82 % 1023,3 hPa 0,0 l/m 2 min 0 min 365 W/m 16,1 km/h (3 Bft) 98,08 %
16.03.2021 14:34 8,9 C 11,1 C 7,3 C 82 % 1023,4 hPa 0,0 l/m 2 min 0 min 412 W/m 25,7 km/h (4 Bft) 97,87 %
16.03.2021 14:36 8,8 C 11,1 C 6,7 C 81 % 1023,3 hPa 0,0 l/m 2 min 0 min 294 W/m 25,7 km/h (4 Bft) 97,87 %
16.03.2021 14:38 8,7 C 11,7 C 6,7 C 81 % 1023,3 hPa 0,0 l/m 2 min 0 min 441 W/m 16,1 km/h (3 Bft) 97,87 %
16.03.2021 14:40 8,7 C 12,2 C 6,7 C 81 % 1023,3 hPa 0,0 l/m 2 min 0 min 463 W/m 16,1 km/h (3 Bft) 97,87 %
16.03.2021 14:42 8,8 C 12,2 C 6,7 C 80 % 1023,3 hPa 0,0 l/m 2 min 0 min 486 W/m 16,1 km/h (3 Bft) 97,87 %
16.03.2021 14:44 8,8 C 11,7 C 6,7 C 80 % 1023,3 hPa 0,0 l/m 2 min 0 min 482 W/m 22,5 km/h (4 Bft) 97,83 %
16.03.2021 14:46 8,8 C 11,7 C 6,7 C 79 % 1023,3 hPa 0,0 l/m 2 min 0 min 480 W/m 19,3 km/h (3 Bft) 97,56 %
16.03.2021 14:48 8,7 C 11,7 C 6,7 C 79 % 1023,4 hPa 0,0 l/m 2 min 0 min 432 W/m 38,6 km/h (5 Bft) 98,11 %
16.03.2021 14:50 8,7 C 11,1 C 6,7 C 79 % 1023,4 hPa 0,0 l/m 2 min 0 min 398 W/m 32,2 km/h (5 Bft) 97,87 %
16.03.2021 14:52 8,6 C 10,6 C 6,7 C 78 % 1023,3 hPa 0,0 l/m 2 min 0 min 409 W/m 32,2 km/h (5 Bft) 97,87 %
16.03.2021 14:54 8,5 C 11,1 C 6,7 C 79 % 1023,4 hPa 0,0 l/m 2 min 0 min 365 W/m 16,1 km/h (3 Bft) 95,74 %
16.03.2021 14:56 8,5 C 10,6 C 6,1 C 79 % 1023,3 hPa 0,0 l/m 2 min 0 min 392 W/m 19,3 km/h (3 Bft) 95,65 %
16.03.2021 14:58 8,4 C 10,0 C 6,1 C 79 % 1023,3 hPa 0,0 l/m 2 min 0 min 286 W/m 12,9 km/h (3 Bft) 97,87 %
16.03.2021 15:00 8,4 C 9,4 C 6,1 C 79 % 1023,4 hPa 0,0 l/m 2 min 0 min 262 W/m 12,9 km/h (3 Bft) 97,87 %
16.03.2021 15:02 8,4 C 10,0 C 6,1 C 80 % 1023,4 hPa 0,0 l/m 2 min 0 min 321 W/m 16,1 km/h (3 Bft) 97,92 %
16.03.2021 15:04 8,4 C 9,4 C 6,1 C 80 % 1023,4 hPa 0,0 l/m 2 min 0 min 283 W/m 16,1 km/h (3 Bft) 95,74 %
16.03.2021 15:06 8,4 C 9,4 C 6,1 C 81 % 1023,4 hPa 0,0 l/m 2 min 0 min 303 W/m 22,5 km/h (4 Bft) 95,65 %
16.03.2021 15:08 8,3 C 8,9 C 6,1 C 80 % 1023,4 hPa 0,0 l/m 0 min 0 min 232 W/m 22,5 km/h (4 Bft) 95,83 %
16.03.2021 15:10 8,3 C 8,9 C 6,1 C 81 % 1023,3 hPa 0,0 l/m 0 min 0 min 207 W/m 16,1 km/h (3 Bft) 93,62 %
16.03.2021 15:12 8,2 C 8,3 C 6,1 C 81 % 1023,4 hPa 0,0 l/m 0 min 0 min 182 W/m 19,3 km/h (3 Bft) 97,87 %
16.03.2021 15:14 8,1 C 7,8 C 5,6 C 81 % 1023,4 hPa 0,0 l/m 0 min 0 min 158 W/m 16,1 km/h (3 Bft) 97,87 %
16.03.2021 15:16 8,0 C 7,8 C 5,6 C 81 % 1023,4 hPa 0,0 l/m 0 min 0 min 164 W/m 16,1 km/h (3 Bft) 97,87 %
16.03.2021 15:18 7,9 C 7,8 C 5,6 C 81 % 1023,4 hPa 0,0 l/m 0 min 0 min 184 W/m 12,9 km/h (3 Bft) 93,48 %
16.03.2021 15:20 7,9 C 9,4 C 5,6 C 82 % 1023,4 hPa 0,0 l/m 2 min 0 min 266 W/m 19,3 km/h (3 Bft) 97,87 %
16.03.2021 15:22 7,9 C 11,1 C 6,1 C 82 % 1023,4 hPa 0,0 l/m 2 min 0 min 463 W/m 9,7 km/h (2 Bft) 95,74 %
16.03.2021 15:24 8,1 C 11,1 C 6,1 C 83 % 1023,4 hPa 0,0 l/m 2 min 0 min 476 W/m 12,9 km/h (3 Bft) 95,74 %
16.03.2021 15:26 8,1 C 10,0 C 6,1 C 82 % 1023,4 hPa 0,0 l/m 2 min 0 min 388 W/m 19,3 km/h (3 Bft) 95,74 %
16.03.2021 15:28 8,1 C 10,0 C 6,1 C 81 % 1023,4 hPa 0,0 l/m 2 min 0 min 269 W/m 19,3 km/h (3 Bft) 93,62 %
16.03.2021 15:30 8,1 C 10,0 C 6,1 C 81 % 1023,3 hPa 0,0 l/m 2 min 0 min 302 W/m 19,3 km/h (3 Bft) 94,87 %
16.03.2021 15:32 8,1 C 9,4 C 6,1 C 82 % 1023,3 hPa 0,0 l/m 2 min 0 min 250 W/m 16,1 km/h (3 Bft) 95,74 %
16.03.2021 15:34 8,1 C 9,4 C 6,1 C 82 % 1023,3 hPa 0,0 l/m 2 min 0 min 235 W/m 19,3 km/h (3 Bft) 95,65 %
16.03.2021 15:36 8,0 C 9,4 C 6,1 C 82 % 1023,3 hPa 0,0 l/m 2 min 0 min 263 W/m 16,1 km/h (3 Bft) 97,87 %
16.03.2021 15:38 8,1 C 9,4 C 6,1 C 82 % 1023,3 hPa 0,0 l/m 2 min 0 min 325 W/m 16,1 km/h (3 Bft) 93,22 %
16.03.2021 15:40 8,0 C 9,4 C 6,1 C 82 % 1023,4 hPa 0,0 l/m 2 min 0 min 310 W/m 16,1 km/h (3 Bft) 94,29 %
16.03.2021 15:42 8,0 C 9,4 C 6,1 C 82 % 1023,3 hPa 0,0 l/m 2 min 0 min 232 W/m 22,5 km/h (4 Bft) 93,62 %
16.03.2021 15:44 8,0 C 8,9 C 6,1 C 82 % 1023,3 hPa 0,0 l/m 2 min 0 min 266 W/m 16,1 km/h (3 Bft) 95,65 %
16.03.2021 15:46 8,0 C 8,3 C 6,1 C 81 % 1023,4 hPa 0,0 l/m 0 min 0 min 178 W/m 12,9 km/h (3 Bft) 100,00 %
16.03.2021 15:48 7,9 C 8,3 C 6,1 C 82 % 1023,3 hPa 0,0 l/m 0 min 0 min 193 W/m 16,1 km/h (3 Bft) 95,74 %
16.03.2021 15:50 7,9 C 8,3 C 6,1 C 82 % 1023,4 hPa 0,0 l/m 2 min 0 min 211 W/m 16,1 km/h (3 Bft) 97,87 %
16.03.2021 15:52 7,9 C 8,3 C 5,6 C 82 % 1023,4 hPa 0,0 l/m 2 min 0 min 202 W/m 22,5 km/h (4 Bft) 95,74 %
16.03.2021 15:54 7,9 C 8,3 C 5,6 C 82 % 1023,3 hPa 0,0 l/m 0 min 0 min 170 W/m 12,9 km/h (3 Bft) 95,74 %
16.03.2021 15:56 7,9 C 8,3 C 5,6 C 81 % 1023,4 hPa 0,0 l/m 0 min 0 min 195 W/m 19,3 km/h (3 Bft) 100,00 %
16.03.2021 15:58 7,8 C 8,3 C 5,6 C 81 % 1023,4 hPa 0,0 l/m 2 min 0 min 216 W/m 12,9 km/h (3 Bft) 100,00 %
16.03.2021 16:00 7,8 C 8,3 C 5,6 C 82 % 1023,4 hPa 0,0 l/m 2 min 0 min 238 W/m 16,1 km/h (3 Bft) 97,87 %
16.03.2021 16:02 7,8 C 8,3 C 5,6 C 82 % 1023,4 hPa 0,0 l/m 2 min 0 min 200 W/m 19,3 km/h (3 Bft) 95,74 %
16.03.2021 16:04 7,8 C 8,3 C 5,6 C 82 % 1023,3 hPa 0,0 l/m 2 min 0 min 212 W/m 12,9 km/h (3 Bft) 97,92 %
16.03.2021 16:06 7,8 C 8,3 C 5,6 C 82 % 1023,3 hPa 0,0 l/m 2 min 0 min 232 W/m 12,9 km/h (3 Bft) 97,87 %
16.03.2021 16:08 7,8 C 9,4 C 5,6 C 82 % 1023,2 hPa 0,0 l/m 2 min 0 min 245 W/m 16,1 km/h (3 Bft) 93,48 %
16.03.2021 16:10 7,9 C 9,4 C 5,6 C 82 % 1023,3 hPa 0,0 l/m 2 min 0 min 205 W/m 16,1 km/h (3 Bft) 97,87 %
16.03.2021 16:12 7,8 C 9,4 C 5,6 C 82 % 1023,3 hPa 0,0 l/m 2 min 0 min 281 W/m 19,3 km/h (3 Bft) 97,87 %
16.03.2021 16:14 7,9 C 9,4 C 5,6 C 82 % 1023,3 hPa 0,0 l/m 2 min 0 min 327 W/m 25,7 km/h (4 Bft) 100,00 %
16.03.2021 16:16 7,8 C 10,0 C 5,6 C 82 % 1023,3 hPa 0,0 l/m 2 min 0 min 309 W/m 19,3 km/h (3 Bft) 95,74 %
16.03.2021 16:18 7,9 C 9,4 C 5,6 C 82 % 1023,2 hPa 0,0 l/m 2 min 0 min 265 W/m 9,7 km/h (2 Bft) 100,00 %
16.03.2021 16:20 7,9 C 9,4 C 5,6 C 82 % 1023,3 hPa 0,0 l/m 2 min 0 min 203 W/m 16,1 km/h (3 Bft) 97,83 %
16.03.2021 16:22 7,9 C 8,9 C 5,6 C 82 % 1023,2 hPa 0,0 l/m 2 min 0 min 192 W/m 12,9 km/h (3 Bft) 100,00 %
16.03.2021 16:24 7,9 C 8,3 C 5,6 C 82 % 1023,2 hPa 0,0 l/m 2 min 0 min 180 W/m 12,9 km/h (3 Bft) 100,00 %
16.03.2021 16:26 7,9 C 8,3 C 5,6 C 82 % 1023,2 hPa 0,0 l/m 0 min 0 min 160 W/m 12,9 km/h (3 Bft) 97,87 %
16.03.2021 16:28 7,9 C 8,3 C 5,6 C 82 % 1023,2 hPa 0,0 l/m 0 min 0 min 143 W/m 16,1 km/h (3 Bft) 97,87 %
16.03.2021 16:30 7,8 C 7,8 C 5,6 C 82 % 1023,2 hPa 0,0 l/m 0 min 0 min 148 W/m 19,3 km/h (3 Bft) 100,00 %
16.03.2021 16:32 7,7 C 7,8 C 5,6 C 82 % 1023,2 hPa 0,0 l/m 0 min 0 min 154 W/m 9,7 km/h (2 Bft) 100,00 %
16.03.2021 16:34 7,6 C 7,8 C 5,6 C 82 % 1023,2 hPa 0,0 l/m 0 min 0 min 136 W/m 12,9 km/h (3 Bft) 100,00 %
16.03.2021 16:36 7,6 C 7,2 C 5,0 C 82 % 1023,3 hPa 0,0 l/m 0 min 0 min 123 W/m 16,1 km/h (3 Bft) 97,87 %
16.03.2021 16:38 7,5 C 7,2 C 5,0 C 82 % 1023,2 hPa 0,0 l/m 0 min 0 min 113 W/m 16,1 km/h (3 Bft) 100,00 %
16.03.2021 16:40 7,5 C 7,2 C 5,0 C 82 % 1023,2 hPa 0,0 l/m 0 min 0 min 106 W/m 12,9 km/h (3 Bft) 97,87 %
16.03.2021 16:42 7,5 C 7,2 C 5,0 C 83 % 1023,3 hPa 0,0 l/m 0 min 0 min 93 W/m 12,9 km/h (3 Bft) 100,00 %
16.03.2021 16:44 7,5 C 7,2 C 5,0 C 83 % 1023,2 hPa 0,0 l/m 0 min 0 min 85 W/m 12,9 km/h (3 Bft) 100,00 %
16.03.2021 16:46 7,4 C 7,2 C 5,0 C 83 % 1023,2 hPa 0,0 l/m 0 min 0 min 90 W/m 12,9 km/h (3 Bft) 100,00 %
16.03.2021 16:48 7,4 C 7,2 C 5,0 C 83 % 1023,2 hPa 0,0 l/m 0 min 0 min 96 W/m 9,7 km/h (2 Bft) 100,00 %
16.03.2021 16:50 7,4 C 7,2 C 5,0 C 83 % 1023,2 hPa 0,0 l/m 0 min 0 min 108 W/m 16,1 km/h (3 Bft) 100,00 %
16.03.2021 16:52 7,4 C 7,2 C 5,0 C 84 % 1023,2 hPa 0,0 l/m 0 min 0 min 112 W/m 16,1 km/h (3 Bft) 97,87 %
16.03.2021 16:54 7,4 C 7,2 C 5,0 C 83 % 1023,2 hPa 0,0 l/m 0 min 0 min 106 W/m 12,9 km/h (3 Bft) 100,00 %
16.03.2021 16:56 7,4 C 7,2 C 5,0 C 84 % 1023,2 hPa 0,0 l/m 0 min 0 min 94 W/m 6,4 km/h (2 Bft) 100,00 %
16.03.2021 16:58 7,4 C 7,2 C 5,0 C 84 % 1023,2 hPa 0,0 l/m 0 min 0 min 79 W/m 19,3 km/h (3 Bft) 100,00 %
16.03.2021 17:00 7,4 C 7,2 C 5,0 C 84 % 1023,1 hPa 0,0 l/m 0 min 0 min 72 W/m 12,9 km/h (3 Bft) 100,00 %
16.03.2021 17:02 7,3 C 7,2 C 5,0 C 84 % 1023,2 hPa 0,0 l/m 0 min 0 min 76 W/m 12,9 km/h (3 Bft) 100,00 %
16.03.2021 17:04 7,3 C 7,2 C 5,0 C 84 % 1023,1 hPa 0,0 l/m 0 min 0 min 85 W/m 19,3 km/h (3 Bft) 97,87 %
16.03.2021 17:06 7,3 C 7,2 C 5,0 C 84 % 1023,2 hPa 0,0 l/m 0 min 0 min 84 W/m 12,9 km/h (3 Bft) 100,00 %
16.03.2021 17:08 7,2 C 6,7 C 5,0 C 84 % 1023,2 hPa 0,0 l/m 0 min 0 min 75 W/m 16,1 km/h (3 Bft) 100,00 %
16.03.2021 17:10 7,2 C 6,7 C 5,0 C 84 % 1023,1 hPa 0,0 l/m 0 min 0 min 69 W/m 16,1 km/h (3 Bft) 97,87 %
16.03.2021 17:12 7,1 C 6,7 C 5,0 C 84 % 1023,1 hPa 0,0 l/m 0 min 0 min 66 W/m 12,9 km/h (3 Bft) 100,00 %
16.03.2021 17:14 7,1 C 6,7 C 5,0 C 84 % 1023,1 hPa 0,0 l/m 0 min 0 min 61 W/m 16,1 km/h (3 Bft) 100,00 %
16.03.2021 17:16 7,1 C 6,7 C 5,0 C 84 % 1023,2 hPa 0,0 l/m 0 min 0 min 58 W/m 16,1 km/h (3 Bft) 100,00 %
16.03.2021 17:18 7,1 C 6,7 C 5,0 C 84 % 1023,1 hPa 0,0 l/m 0 min 0 min 55 W/m 12,9 km/h (3 Bft) 97,83 %
16.03.2021 17:20 7,1 C 6,7 C 4,5 C 84 % 1023,2 hPa 0,0 l/m 0 min 0 min 49 W/m 12,9 km/h (3 Bft) 100,00 %
16.03.2021 17:22 7,0 C 6,7 C 4,5 C 84 % 1023,1 hPa 0,0 l/m 0 min 0 min 53 W/m 12,9 km/h (3 Bft) 100,00 %
16.03.2021 17:24 7,0 C 6,7 C 4,5 C 84 % 1023,1 hPa 0,0 l/m 0 min 0 min 54 W/m 16,1 km/h (3 Bft) 97,87 %
16.03.2021 17:26 7,0 C 6,7 C 4,5 C 84 % 1023,1 hPa 0,0 l/m 0 min 0 min 52 W/m 16,1 km/h (3 Bft) 97,87 %
16.03.2021 17:28 7,0 C 6,7 C 4,5 C 85 % 1023,2 hPa 0,0 l/m 0 min 0 min 51 W/m 12,9 km/h (3 Bft) 97,87 %
16.03.2021 17:30 7,0 C 6,7 C 4,5 C 85 % 1023,2 hPa 0,0 l/m 0 min 0 min 48 W/m 16,1 km/h (3 Bft) 100,00 %
16.03.2021 17:32 6,9 C 6,7 C 4,5 C 85 % 1023,2 hPa 0,0 l/m 0 min 0 min 43 W/m 9,7 km/h (2 Bft) 97,87 %
16.03.2021 17:34 6,9 C 6,7 C 4,5 C 85 % 1023,2 hPa 0,0 l/m 0 min 0 min 38 W/m 16,1 km/h (3 Bft) 97,87 %
16.03.2021 17:36 6,9 C 6,7 C 4,5 C 85 % 1023,2 hPa 0,0 l/m 0 min 0 min 35 W/m 12,9 km/h (3 Bft) 95,74 %
16.03.2021 17:38 6,8 C 6,1 C 4,5 C 85 % 1023,2 hPa 0,0 l/m 0 min 0 min 34 W/m 16,1 km/h (3 Bft) 97,87 %
16.03.2021 17:40 6,8 C 6,1 C 4,5 C 85 % 1023,2 hPa 0,0 l/m 0 min 0 min 32 W/m 12,9 km/h (3 Bft) 93,62 %
16.03.2021 17:42 6,8 C 6,1 C 4,5 C 86 % 1023,2 hPa 0,0 l/m 0 min 0 min 29 W/m 6,4 km/h (2 Bft) 97,83 %
16.03.2021 17:44 6,8 C 6,1 C 4,5 C 86 % 1023,2 hPa 0,0 l/m 0 min 0 min 26 W/m 9,7 km/h (2 Bft) 93,62 %
16.03.2021 17:46 6,8 C 6,1 C 4,5 C 86 % 1023,2 hPa 0,0 l/m 0 min 0 min 24 W/m 9,7 km/h (2 Bft) 95,74 %
16.03.2021 17:48 6,7 C 6,1 C 4,5 C 87 % 1023,3 hPa 0,0 l/m 0 min 0 min 25 W/m 12,9 km/h (3 Bft) 95,74 %
16.03.2021 17:50 6,7 C 6,1 C 4,5 C 87 % 1023,3 hPa 0,0 l/m 0 min 0 min 26 W/m 9,7 km/h (2 Bft) 95,74 %
16.03.2021 17:52 6,6 C 6,1 C 4,5 C 87 % 1023,3 hPa 0,0 l/m 0 min 0 min 26 W/m 6,4 km/h (2 Bft) 95,74 %
16.03.2021 17:54 6,6 C 6,1 C 4,5 C 87 % 1023,3 hPa 0,0 l/m 0 min 0 min 25 W/m 12,9 km/h (3 Bft) 93,48 %
16.03.2021 17:56 6,6 C 6,1 C 4,5 C 87 % 1023,4 hPa 0,0 l/m 0 min 0 min 25 W/m 9,7 km/h (2 Bft) 95,74 %
16.03.2021 17:58 6,5 C 6,1 C 4,5 C 87 % 1023,3 hPa 0,0 l/m 0 min 0 min 25 W/m 12,9 km/h (3 Bft) 93,62 %
16.03.2021 18:00 6,5 C 6,1 C 4,5 C 87 % 1023,3 hPa 0,0 l/m 0 min 0 min 26 W/m 12,9 km/h (3 Bft) 93,62 %
16.03.2021 18:02 6,5 C 6,1 C 4,5 C 87 % 1023,4 hPa 0,0 l/m 0 min 0 min 26 W/m 9,7 km/h (2 Bft) 94,34 %
16.03.2021 18:04 6,5 C 6,1 C 4,5 C 87 % 1023,4 hPa 0,0 l/m 0 min 0 min 25 W/m 9,7 km/h (2 Bft) 93,48 %
16.03.2021 18:08 6,4 C 6,1 C 3,9 C 87 % 1023,3 hPa 0,0 l/m 0 min 0 min 24 W/m 12,9 km/h (3 Bft) 95,79 %
16.03.2021 18:10 6,4 C 6,1 C 3,9 C 87 % 1023,4 hPa 0,0 l/m 0 min 0 min 19 W/m 9,7 km/h (2 Bft) 93,62 %
16.03.2021 18:12 6,4 C 6,1 C 3,9 C 87 % 1023,4 hPa 0,0 l/m 0 min 0 min 18 W/m 9,7 km/h (2 Bft) 93,62 %
16.03.2021 18:14 6,4 C 6,1 C 3,9 C 87 % 1023,3 hPa 0,0 l/m 0 min 0 min 15 W/m 9,7 km/h (2 Bft) 95,74 %
16.03.2021 18:16 6,4 C 6,1 C 3,9 C 87 % 1023,3 hPa 0,0 l/m 0 min 0 min 12 W/m 12,9 km/h (3 Bft) 95,65 %
16.03.2021 18:18 6,4 C 5,6 C 3,9 C 88 % 1023,4 hPa 0,0 l/m 0 min 0 min 11 W/m 6,4 km/h (2 Bft) 95,74 %
16.03.2021 18:20 6,4 C 5,6 C 3,9 C 88 % 1023,4 hPa 0,0 l/m 0 min 0 min 10 W/m 9,7 km/h (2 Bft) 97,87 %
16.03.2021 18:22 6,4 C 5,6 C 3,9 C 88 % 1023,4 hPa 0,0 l/m 0 min 2 min 9 W/m 12,9 km/h (3 Bft) 97,87 %
16.03.2021 18:24 6,4 C 5,6 C 3,9 C 88 % 1023,4 hPa 0,0 l/m 0 min 0 min 7 W/m 6,4 km/h (2 Bft) 97,87 %
16.03.2021 18:26 6,4 C 5,6 C 3,9 C 88 % 1023,4 hPa 0,0 l/m 0 min 2 min 6 W/m 9,7 km/h (2 Bft) 93,62 %
16.03.2021 18:28 6,3 C 5,6 C 3,9 C 89 % 1023,4 hPa 0,0 l/m 0 min 2 min 3 W/m 6,4 km/h (2 Bft) 97,83 %
16.03.2021 18:30 6,3 C 5,6 C 3,9 C 89 % 1023,4 hPa 0,0 l/m 0 min 2 min 0 W/m 6,4 km/h (2 Bft) 95,83 %
16.03.2021 18:32 6,3 C 5,6 C 3,9 C 89 % 1023,4 hPa 0,0 l/m 0 min 2 min 0 W/m 9,7 km/h (2 Bft) 97,87 %
16.03.2021 18:34 6,3 C 5,6 C 3,9 C 89 % 1023,4 hPa 0,0 l/m 0 min 0 min 0 W/m 12,9 km/h (3 Bft) 100,00 %
16.03.2021 18:36 6,2 C 5,6 C 3,9 C 90 % 1023,5 hPa 0,0 l/m 0 min 2 min 0 W/m 9,7 km/h (2 Bft) 97,87 %
16.03.2021 18:38 6,2 C 5,6 C 3,9 C 90 % 1023,4 hPa 0,0 l/m 0 min 2 min 0 W/m 9,7 km/h (2 Bft) 100,00 %
16.03.2021 18:40 6,1 C 5,6 C 3,4 C 90 % 1023,4 hPa 0,0 l/m 0 min 2 min 0 W/m 9,7 km/h (2 Bft) 100,00 %
16.03.2021 18:42 6,1 C 5,6 C 3,4 C 90 % 1023,4 hPa 0,0 l/m 0 min 2 min 0 W/m 6,4 km/h (2 Bft) 97,87 %
16.03.2021 18:44 6,1 C 5,6 C 3,4 C 90 % 1023,5 hPa 0,0 l/m 0 min 2 min 0 W/m 9,7 km/h (2 Bft) 100,00 %
16.03.2021 18:46 6,1 C 5,6 C 3,4 C 91 % 1023,5 hPa 0,0 l/m 0 min 0 min 0 W/m 6,4 km/h (2 Bft) 100,00 %
16.03.2021 18:48 6,0 C 5,6 C 3,4 C 91 % 1023,5 hPa 0,0 l/m 0 min 0 min 0 W/m 6,4 km/h (2 Bft) 100,00 %
16.03.2021 18:50 6,0 C 5,6 C 3,4 C 91 % 1023,5 hPa 0,0 l/m 0 min 2 min 0 W/m 9,7 km/h (2 Bft) 97,87 %
16.03.2021 18:52 6,0 C 5,6 C 3,4 C 91 % 1023,4 hPa 0,0 l/m 0 min 0 min 0 W/m 6,4 km/h (2 Bft) 100,00 %
16.03.2021 18:54 6,0 C 5,6 C 3,4 C 91 % 1023,5 hPa 0,0 l/m 0 min 2 min 0 W/m 6,4 km/h (2 Bft) 100,00 %
16.03.2021 18:56 6,0 C 5,6 C 3,4 C 91 % 1023,5 hPa 0,0 l/m 0 min 2 min 0 W/m 9,7 km/h (2 Bft) 100,00 %
16.03.2021 18:58 5,9 C 5,0 C 3,4 C 92 % 1023,5 hPa 0,0 l/m 0 min 0 min 0 W/m 6,4 km/h (2 Bft) 100,00 %
16.03.2021 19:00 5,9 C 5,0 C 3,4 C 92 % 1023,5 hPa 0,0 l/m 0 min 0 min 0 W/m 12,9 km/h (3 Bft) 100,00 %
16.03.2021 19:02 5,9 C 5,0 C 3,4 C 92 % 1023,5 hPa 0,0 l/m 0 min 0 min 0 W/m 9,7 km/h (2 Bft) 100,00 %
16.03.2021 19:04 5,8 C 5,0 C 3,4 C 92 % 1023,4 hPa 0,0 l/m 0 min 0 min 0 W/m 6,4 km/h (2 Bft) 100,00 %
16.03.2021 19:06 5,8 C 5,0 C 3,4 C 92 % 1023,5 hPa 0,0 l/m 0 min 2 min 0 W/m 9,7 km/h (2 Bft) 97,87 %
16.03.2021 19:08 5,8 C 5,0 C 3,4 C 92 % 1023,5 hPa 0,0 l/m 0 min 2 min 0 W/m 9,7 km/h (2 Bft) 100,00 %
16.03.2021 19:10 5,7 C 5,0 C 3,4 C 93 % 1023,5 hPa 0,0 l/m 0 min 2 min 0 W/m 6,4 km/h (2 Bft) 100,00 %
16.03.2021 19:12 5,7 C 5,0 C 3,4 C 93 % 1023,5 hPa 0,0 l/m 0 min 2 min 0 W/m 6,4 km/h (2 Bft) 100,00 %
16.03.2021 19:14 5,7 C 5,0 C 3,4 C 93 % 1023,5 hPa 0,0 l/m 0 min 0 min 0 W/m 9,7 km/h (2 Bft) 97,83 %
16.03.2021 19:16 5,7 C 5,0 C 3,4 C 93 % 1023,6 hPa 0,0 l/m 0 min 0 min 0 W/m 6,4 km/h (2 Bft) 100,00 %
16.03.2021 19:18 5,6 C 5,0 C 3,4 C 93 % 1023,5 hPa 0,0 l/m 0 min 2 min 0 W/m 3,2 km/h (1 Bft) 97,87 %
16.03.2021 19:20 5,6 C 5,0 C 3,4 C 93 % 1023,5 hPa 0,2 l/m 0 min 2 min 0 W/m 6,4 km/h (2 Bft) 100,00 %
16.03.2021 19:22 5,6 C 5,0 C 3,4 C 93 % 1023,5 hPa 0,0 l/m 0 min 2 min 0 W/m 6,4 km/h (2 Bft) 100,00 %
16.03.2021 19:24 5,6 C 5,0 C 3,4 C 93 % 1023,5 hPa 0,0 l/m 0 min 2 min 0 W/m 3,2 km/h (1 Bft) 96,00 %
16.03.2021 19:26 5,6 C 5,0 C 3,4 C 94 % 1023,5 hPa 0,0 l/m 0 min 0 min 0 W/m 6,4 km/h (2 Bft) 97,83 %
16.03.2021 19:28 5,6 C 5,0 C 3,4 C 94 % 1023,5 hPa 0,0 l/m 0 min 2 min 0 W/m 3,2 km/h (1 Bft) 97,87 %
16.03.2021 19:30 5,5 C 5,0 C 3,4 C 94 % 1023,5 hPa 0,0 l/m 0 min 0 min 0 W/m 9,7 km/h (2 Bft) 97,87 %
16.03.2021 19:32 5,5 C 5,0 C 3,4 C 94 % 1023,6 hPa 0,0 l/m 0 min 2 min 0 W/m 3,2 km/h (1 Bft) 97,92 %
16.03.2021 19:34 5,5 C 5,0 C 3,4 C 94 % 1023,5 hPa 0,0 l/m 0 min 2 min 0 W/m 6,4 km/h (2 Bft) 97,87 %
16.03.2021 19:36 5,5 C 5,0 C 3,4 C 94 % 1023,5 hPa 0,0 l/m 0 min 2 min 0 W/m 3,2 km/h (1 Bft) 97,56 %
16.03.2021 19:38 5,5 C 5,0 C 3,4 C 94 % 1023,5 hPa 0,0 l/m 0 min 2 min 0 W/m 6,4 km/h (2 Bft) 95,74 %
16.03.2021 19:40 5,5 C 5,0 C 3,4 C 94 % 1023,5 hPa 0,0 l/m 0 min 2 min 0 W/m 6,4 km/h (2 Bft) 97,83 %
16.03.2021 19:42 5,5 C 5,0 C 3,4 C 94 % 1023,5 hPa 0,0 l/m 0 min 2 min 0 W/m 3,2 km/h (1 Bft) 97,87 %
16.03.2021 19:44 5,5 C 5,0 C 3,4 C 94 % 1023,6 hPa 0,0 l/m 0 min 2 min 0 W/m 6,4 km/h (2 Bft) 97,87 %
16.03.2021 19:46 5,5 C 5,0 C 3,4 C 94 % 1023,5 hPa 0,0 l/m 0 min 0 min 0 W/m 6,4 km/h (2 Bft) 95,12 %
16.03.2021 19:48 5,5 C 5,0 C 3,4 C 94 % 1023,5 hPa 0,0 l/m 0 min 0 min 0 W/m 3,2 km/h (1 Bft) 97,87 %
16.03.2021 19:50 5,5 C 5,0 C 3,4 C 94 % 1023,5 hPa 0,0 l/m 0 min 2 min 0 W/m 9,7 km/h (2 Bft) 97,87 %
16.03.2021 19:52 5,5 C 5,0 C 3,4 C 95 % 1023,4 hPa 0,0 l/m 0 min 2 min 0 W/m 3,2 km/h (1 Bft) 97,83 %
16.03.2021 19:54 5,5 C 5,0 C 3,4 C 95 % 1023,5 hPa 0,0 l/m 0 min 2 min 0 W/m 9,7 km/h (2 Bft) 97,87 %
16.03.2021 19:56 5,5 C 5,0 C 3,4 C 95 % 1023,5 hPa 0,0 l/m 0 min 2 min 0 W/m 9,7 km/h (2 Bft) 95,74 %
16.03.2021 19:58 5,4 C 5,0 C 3,4 C 94 % 1023,4 hPa 0,0 l/m 0 min 0 min 0 W/m 6,4 km/h (2 Bft) 95,74 %
16.03.2021 20:00 5,4 C 5,0 C 3,4 C 94 % 1023,5 hPa 0,0 l/m 0 min 2 min 0 W/m 3,2 km/h (1 Bft) 97,87 %
16.03.2021 20:02 5,4 C 5,0 C 3,4 C 95 % 1023,4 hPa 0,2 l/m 0 min 2 min 0 W/m 9,7 km/h (2 Bft) 96,23 %
16.03.2021 20:04 5,4 C 5,0 C 3,4 C 95 % 1023,4 hPa 0,0 l/m 0 min 2 min 0 W/m 9,7 km/h (2 Bft) 95,74 %
16.03.2021 20:06 5,4 C 5,0 C 3,4 C 95 % 1023,4 hPa 0,0 l/m 0 min 2 min 0 W/m 9,7 km/h (2 Bft) 93,62 %
16.03.2021 20:08 5,4 C 5,0 C 3,4 C 95 % 1023,5 hPa 0,0 l/m 0 min 2 min 0 W/m 6,4 km/h (2 Bft) 95,74 %
16.03.2021 20:10 5,3 C 5,0 C 3,4 C 95 % 1023,4 hPa 0,0 l/m 0 min 0 min 0 W/m 9,7 km/h (2 Bft) 95,74 %
16.03.2021 20:12 5,3 C 5,0 C 3,4 C 95 % 1023,4 hPa 0,0 l/m 0 min 2 min 0 W/m 9,7 km/h (2 Bft) 95,74 %
16.03.2021 20:14 5,3 C 4,4 C 3,4 C 95 % 1023,4 hPa 0,0 l/m 0 min 2 min 0 W/m 6,4 km/h (2 Bft) 93,48 %
16.03.2021 20:16 5,3 C 4,4 C 3,4 C 95 % 1023,4 hPa 0,0 l/m 0 min 0 min 0 W/m 3,2 km/h (1 Bft) 93,62 %
16.03.2021 20:18 5,3 C 4,4 C 3,4 C 95 % 1023,4 hPa 0,0 l/m 0 min 0 min 0 W/m 9,7 km/h (2 Bft) 93,62 %
16.03.2021 20:20 5,3 C 4,4 C 3,4 C 95 % 1023,4 hPa 0,0 l/m 0 min 2 min 0 W/m 6,4 km/h (2 Bft) 95,74 %
16.03.2021 20:22 5,3 C 4,4 C 3,4 C 95 % 1023,5 hPa 0,0 l/m 0 min 2 min 0 W/m 6,4 km/h (2 Bft) 95,74 %
16.03.2021 20:24 5,3 C 4,4 C 3,4 C 95 % 1023,5 hPa 0,0 l/m 0 min 2 min 0 W/m 6,4 km/h (2 Bft) 93,62 %
16.03.2021 20:26 5,3 C 4,4 C 3,4 C 95 % 1023,4 hPa 0,0 l/m 0 min 2 min 0 W/m 3,2 km/h (1 Bft) 95,65 %
16.03.2021 20:28 5,3 C 4,4 C 3,4 C 95 % 1023,4 hPa 0,0 l/m 0 min 2 min 0 W/m 3,2 km/h (1 Bft) 93,62 %
16.03.2021 20:30 5,3 C 4,4 C 3,4 C 95 % 1023,4 hPa 0,0 l/m 0 min 2 min 0 W/m 3,2 km/h (1 Bft) 93,62 %
16.03.2021 20:32 5,3 C 4,4 C 3,4 C 95 % 1023,4 hPa 0,0 l/m 0 min 2 min 0 W/m 9,7 km/h (2 Bft) 93,62 %
16.03.2021 20:34 5,3 C 4,4 C 3,4 C 95 % 1023,4 hPa 0,0 l/m 0 min 2 min 0 W/m 6,4 km/h (2 Bft) 95,74 %
16.03.2021 20:36 5,3 C 4,4 C 3,4 C 95 % 1023,4 hPa 0,0 l/m 0 min 2 min 0 W/m 3,2 km/h (1 Bft) 97,87 %
16.03.2021 20:38 5,3 C 4,4 C 3,4 C 95 % 1023,4 hPa 0,0 l/m 0 min 2 min 0 W/m 0,0 km/h (0 Bft) 95,65 %
16.03.2021 20:40 5,3 C 4,4 C 3,4 C 95 % 1023,4 hPa 0,0 l/m 0 min 2 min 0 W/m 6,4 km/h (2 Bft) 95,74 %
16.03.2021 20:42 5,3 C 4,4 C 3,4 C 95 % 1023,4 hPa 0,0 l/m 0 min 2 min 0 W/m 3,2 km/h (1 Bft) 95,74 %
16.03.2021 20:44 5,3 C 4,4 C 3,4 C 96 % 1023,4 hPa 0,0 l/m 0 min 2 min 0 W/m 6,4 km/h (2 Bft) 97,87 %
16.03.2021 20:46 5,3 C 5,0 C 3,4 C 95 % 1023,4 hPa 0,0 l/m 0 min 2 min 0 W/m 3,2 km/h (1 Bft) 97,87 %
16.03.2021 20:48 5,3 C 5,0 C 3,4 C 95 % 1023,4 hPa 0,0 l/m 0 min 2 min 0 W/m 3,2 km/h (1 Bft) 97,87 %
16.03.2021 20:50 5,4 C 5,0 C 3,4 C 96 % 1023,4 hPa 0,2 l/m 0 min 2 min 0 W/m 6,4 km/h (2 Bft) 97,83 %
16.03.2021 20:52 5,4 C 5,0 C 3,4 C 96 % 1023,4 hPa 0,0 l/m 0 min 2 min 0 W/m 3,2 km/h (1 Bft) 97,87 %
16.03.2021 20:54 5,4 C 5,0 C 3,4 C 96 % 1023,4 hPa 0,0 l/m 0 min 2 min 0 W/m 6,4 km/h (2 Bft) 95,74 %
16.03.2021 20:56 5,4 C 5,0 C 3,4 C 96 % 1023,4 hPa 0,0 l/m 0 min 2 min 0 W/m 3,2 km/h (1 Bft) 95,74 %
16.03.2021 20:58 5,4 C 5,0 C 3,4 C 96 % 1023,4 hPa 0,0 l/m 0 min 0 min 0 W/m 6,4 km/h (2 Bft) 95,74 %
16.03.2021 21:00 5,5 C 5,0 C 3,4 C 96 % 1023,4 hPa 0,0 l/m 0 min 2 min 0 W/m 6,4 km/h (2 Bft) 95,74 %
16.03.2021 21:02 5,4 C 5,0 C 3,4 C 96 % 1023,4 hPa 0,0 l/m 0 min 2 min 0 W/m 3,2 km/h (1 Bft) 95,65 %
16.03.2021 21:04 5,5 C 5,0 C 3,4 C 96 % 1023,4 hPa 0,0 l/m 0 min 2 min 0 W/m 3,2 km/h (1 Bft) 95,74 %
16.03.2021 21:06 5,5 C 5,0 C 3,4 C 96 % 1023,4 hPa 0,0 l/m 0 min 2 min 0 W/m 3,2 km/h (1 Bft) 93,62 %
16.03.2021 21:08 5,5 C 5,0 C 3,4 C 96 % 1023,4 hPa 0,0 l/m 0 min 2 min 0 W/m 3,2 km/h (1 Bft) 93,62 %
16.03.2021 21:10 5,5 C 5,0 C 3,4 C 96 % 1023,4 hPa 0,0 l/m 0 min 2 min 0 W/m 6,4 km/h (2 Bft) 95,74 %
16.03.2021 21:12 5,5 C 5,0 C 3,4 C 96 % 1023,4 hPa 0,0 l/m 0 min 2 min 0 W/m 6,4 km/h (2 Bft) 95,74 %
16.03.2021 21:14 5,5 C 5,0 C 3,4 C 96 % 1023,4 hPa 0,0 l/m 0 min 2 min 0 W/m 6,4 km/h (2 Bft) 91,30 %
16.03.2021 21:16 5,5 C 5,0 C 3,4 C 96 % 1023,3 hPa 0,0 l/m 0 min 2 min 0 W/m 6,4 km/h (2 Bft) 95,74 %
16.03.2021 21:18 5,4 C 5,0 C 3,4 C 96 % 1023,4 hPa 0,0 l/m 0 min 2 min 0 W/m 9,7 km/h (2 Bft) 95,74 %
16.03.2021 21:20 5,4 C 4,4 C 3,4 C 96 % 1023,4 hPa 0,0 l/m 0 min 2 min 0 W/m 6,4 km/h (2 Bft) 95,74 %
16.03.2021 21:22 5,4 C 4,4 C 3,4 C 96 % 1023,4 hPa 0,0 l/m 0 min 2 min 0 W/m 3,2 km/h (1 Bft) 93,62 %
16.03.2021 21:24 5,4 C 4,4 C 3,4 C 96 % 1023,3 hPa 0,0 l/m 0 min 2 min 0 W/m 6,4 km/h (2 Bft) 97,87 %
16.03.2021 21:26 5,3 C 4,4 C 3,4 C 96 % 1023,4 hPa 0,2 l/m 0 min 2 min 0 W/m 3,2 km/h (1 Bft) 95,65 %
16.03.2021 21:28 5,3 C 4,4 C 3,4 C 96 % 1023,3 hPa 0,0 l/m 0 min 2 min 0 W/m 9,7 km/h (2 Bft) 97,87 %
16.03.2021 21:30 5,3 C 4,4 C 3,4 C 96 % 1023,4 hPa 0,0 l/m 0 min 2 min 0 W/m 3,2 km/h (1 Bft) 97,87 %
16.03.2021 21:32 5,3 C 4,4 C 3,4 C 96 % 1023,3 hPa 0,0 l/m 0 min 2 min 0 W/m 6,4 km/h (2 Bft) 95,74 %
16.03.2021 21:34 5,3 C 4,4 C 3,4 C 96 % 1023,3 hPa 0,0 l/m 0 min 2 min 0 W/m 6,4 km/h (2 Bft) 97,87 %
16.03.2021 21:36 5,3 C 4,4 C 3,4 C 96 % 1023,3 hPa 0,0 l/m 0 min 2 min 0 W/m 3,2 km/h (1 Bft) 95,65 %
16.03.2021 21:38 5,3 C 4,4 C 3,4 C 96 % 1023,4 hPa 0,0 l/m 0 min 2 min 0 W/m 6,4 km/h (2 Bft) 96,15 %
16.03.2021 21:40 5,3 C 4,4 C 3,4 C 96 % 1023,3 hPa 0,0 l/m 0 min 2 min 0 W/m 3,2 km/h (1 Bft) 100,00 %
16.03.2021 21:42 5,3 C 4,4 C 3,4 C 96 % 1023,4 hPa 0,0 l/m 0 min 2 min 0 W/m 3,2 km/h (1 Bft) 95,74 %
16.03.2021 21:44 5,3 C 4,4 C 3,4 C 96 % 1023,4 hPa 0,0 l/m 0 min 2 min 0 W/m 6,4 km/h (2 Bft) 95,74 %
16.03.2021 21:46 5,2 C 4,4 C 3,4 C 96 % 1023,3 hPa 0,0 l/m 0 min 2 min 0 W/m 6,4 km/h (2 Bft) 95,74 %
16.03.2021 21:48 5,3 C 4,4 C 3,4 C 96 % 1023,4 hPa 0,0 l/m 0 min 2 min 0 W/m 6,4 km/h (2 Bft) 97,87 %
16.03.2021 21:50 5,2 C 4,4 C 3,4 C 96 % 1023,4 hPa 0,0 l/m 0 min 2 min 0 W/m 6,4 km/h (2 Bft) 93,48 %
16.03.2021 21:52 5,2 C 4,4 C 3,4 C 96 % 1023,4 hPa 0,0 l/m 0 min 2 min 0 W/m 3,2 km/h (1 Bft) 97,87 %
16.03.2021 21:54 5,2 C 4,4 C 3,4 C 96 % 1023,4 hPa 0,0 l/m 0 min 2 min 0 W/m 3,2 km/h (1 Bft) 100,00 %
16.03.2021 21:56 5,2 C 4,4 C 3,4 C 96 % 1023,4 hPa 0,0 l/m 0 min 2 min 0 W/m 3,2 km/h (1 Bft) 95,74 %
16.03.2021 21:58 5,3 C 4,4 C 3,4 C 96 % 1023,4 hPa 0,0 l/m 0 min 2 min 0 W/m 3,2 km/h (1 Bft) 97,87 %
16.03.2021 22:00 5,2 C 4,4 C 3,4 C 96 % 1023,4 hPa 0,0 l/m 0 min 2 min 0 W/m 3,2 km/h (1 Bft) 100,00 %
16.03.2021 22:02 5,2 C 4,4 C 3,4 C 96 % 1023,4 hPa 0,0 l/m 0 min 2 min 0 W/m 6,4 km/h (2 Bft) 97,83 %
16.03.2021 22:04 5,2 C 4,4 C 3,4 C 96 % 1023,4 hPa 0,0 l/m 0 min 2 min 0 W/m 3,2 km/h (1 Bft) 97,87 %
16.03.2021 22:06 5,2 C 4,4 C 3,4 C 96 % 1023,4 hPa 0,0 l/m 0 min 2 min 0 W/m 3,2 km/h (1 Bft) 100,00 %
16.03.2021 22:08 5,2 C 4,4 C 3,4 C 96 % 1023,3 hPa 0,0 l/m 0 min 2 min 0 W/m 6,4 km/h (2 Bft) 96,61 %
16.03.2021 22:10 5,1 C 4,4 C 3,4 C 96 % 1023,4 hPa 0,0 l/m 0 min 2 min 0 W/m 3,2 km/h (1 Bft) 100,00 %
16.03.2021 22:12 5,1 C 4,4 C 3,4 C 96 % 1023,4 hPa 0,2 l/m 0 min 2 min 0 W/m 3,2 km/h (1 Bft) 97,87 %
16.03.2021 22:14 5,1 C 4,4 C 3,4 C 96 % 1023,4 hPa 0,0 l/m 0 min 2 min 0 W/m 6,4 km/h (2 Bft) 97,83 %
16.03.2021 22:16 5,1 C 4,4 C 3,4 C 96 % 1023,4 hPa 0,0 l/m 0 min 2 min 0 W/m 6,4 km/h (2 Bft) 100,00 %
16.03.2021 22:18 5,1 C 4,4 C 3,4 C 96 % 1023,4 hPa 0,0 l/m 0 min 2 min 0 W/m 6,4 km/h (2 Bft) 100,00 %
16.03.2021 22:20 5,1 C 4,4 C 3,4 C 96 % 1023,4 hPa 0,0 l/m 0 min 0 min 0 W/m 9,7 km/h (2 Bft) 100,00 %
16.03.2021 22:22 5,1 C 4,4 C 3,4 C 96 % 1023,4 hPa 0,0 l/m 0 min 2 min 0 W/m 6,4 km/h (2 Bft) 97,87 %
16.03.2021 22:24 5,1 C 4,4 C 3,4 C 96 % 1023,5 hPa 0,0 l/m 0 min 0 min 0 W/m 6,4 km/h (2 Bft) 100,00 %
16.03.2021 22:26 5,1 C 4,4 C 3,4 C 96 % 1023,5 hPa 0,0 l/m 0 min 2 min 0 W/m 6,4 km/h (2 Bft) 97,83 %
16.03.2021 22:28 5,1 C 4,4 C 3,4 C 96 % 1023,5 hPa 0,0 l/m 0 min 2 min 0 W/m 6,4 km/h (2 Bft) 95,74 %
16.03.2021 22:30 5,0 C 4,4 C 3,4 C 96 % 1023,5 hPa 0,0 l/m 0 min 0 min 0 W/m 3,2 km/h (1 Bft) 97,87 %
16.03.2021 22:32 5,0 C 4,4 C 3,4 C 96 % 1023,5 hPa 0,0 l/m 0 min 2 min 0 W/m 9,7 km/h (2 Bft) 97,87 %
16.03.2021 22:34 5,0 C 4,4 C 3,4 C 96 % 1023,5 hPa 0,0 l/m 0 min 0 min 0 W/m 9,7 km/h (2 Bft) 97,87 %
16.03.2021 22:36 5,0 C 4,4 C 3,4 C 96 % 1023,5 hPa 0,0 l/m 0 min 0 min 0 W/m 9,7 km/h (2 Bft) 97,87 %
16.03.2021 22:38 5,0 C 4,4 C 3,4 C 96 % 1023,6 hPa 0,0 l/m 0 min 0 min 0 W/m 6,4 km/h (2 Bft) 96,55 %
16.03.2021 22:40 4,9 C 4,4 C 3,4 C 96 % 1023,6 hPa 0,0 l/m 0 min 0 min 0 W/m 6,4 km/h (2 Bft) 97,67 %
16.03.2021 22:42 4,9 C 4,4 C 3,4 C 96 % 1023,6 hPa 0,0 l/m 0 min 0 min 0 W/m 6,4 km/h (2 Bft) 97,87 %
16.03.2021 22:44 4,9 C 4,4 C 3,4 C 96 % 1023,6 hPa 0,0 l/m 0 min 0 min 0 W/m 12,9 km/h (3 Bft) 97,87 %
16.03.2021 22:46 4,9 C 4,4 C 3,4 C 96 % 1023,6 hPa 0,0 l/m 0 min 0 min 0 W/m 6,4 km/h (2 Bft) 97,83 %
16.03.2021 22:48 4,9 C 4,4 C 3,4 C 96 % 1023,7 hPa 0,0 l/m 0 min 2 min 0 W/m 9,7 km/h (2 Bft) 97,87 %
16.03.2021 22:50 4,8 C 4,4 C 3,4 C 96 % 1023,6 hPa 0,0 l/m 0 min 2 min 0 W/m 9,7 km/h (2 Bft) 95,74 %
16.03.2021 22:52 4,8 C 4,4 C 3,4 C 96 % 1023,6 hPa 0,0 l/m 0 min 0 min 0 W/m 6,4 km/h (2 Bft) 97,87 %
16.03.2021 22:54 4,8 C 4,4 C 3,4 C 96 % 1023,7 hPa 0,0 l/m 0 min 0 min 0 W/m 6,4 km/h (2 Bft) 97,87 %
16.03.2021 22:56 4,8 C 4,4 C 3,4 C 96 % 1023,7 hPa 0,0 l/m 0 min 0 min 0 W/m 6,4 km/h (2 Bft) 97,87 %
16.03.2021 22:58 4,8 C 4,4 C 3,4 C 96 % 1023,7 hPa 0,0 l/m 0 min 0 min 0 W/m 6,4 km/h (2 Bft) 97,87 %
16.03.2021 23:00 4,8 C 4,4 C 3,4 C 96 % 1023,7 hPa 0,0 l/m 0 min 0 min 0 W/m 9,7 km/h (2 Bft) 97,83 %
16.03.2021 23:02 4,8 C 4,4 C 3,4 C 96 % 1023,7 hPa 0,0 l/m 0 min 0 min 0 W/m 6,4 km/h (2 Bft) 97,92 %
16.03.2021 23:04 4,8 C 4,4 C 3,4 C 96 % 1023,8 hPa 0,0 l/m 0 min 2 min 0 W/m 6,4 km/h (2 Bft) 97,87 %
16.03.2021 23:06 4,8 C 4,4 C 3,4 C 96 % 1023,7 hPa 0,0 l/m 0 min 2 min 0 W/m 6,4 km/h (2 Bft) 100,00 %
16.03.2021 23:08 4,8 C 4,4 C 3,4 C 96 % 1023,7 hPa 0,0 l/m 0 min 0 min 0 W/m 6,4 km/h (2 Bft) 100,00 %
16.03.2021 23:10 4,8 C 4,4 C 3,4 C 96 % 1023,7 hPa 0,0 l/m 0 min 2 min 0 W/m 3,2 km/h (1 Bft) 100,00 %
16.03.2021 23:12 4,8 C 4,4 C 3,4 C 96 % 1023,7 hPa 0,0 l/m 0 min 2 min 0 W/m 9,7 km/h (2 Bft) 63,83 %
16.03.2021 23:14 4,7 C 4,4 C 3,4 C 96 % 1023,7 hPa 0,0 l/m 0 min 0 min 0 W/m 6,4 km/h (2 Bft) 90,70 %
16.03.2021 23:16 4,7 C 4,4 C 3,4 C 96 % 1023,7 hPa 0,0 l/m 0 min 2 min 0 W/m 6,4 km/h (2 Bft) 100,00 %
16.03.2021 23:18 4,7 C 4,4 C 3,4 C 96 % 1023,7 hPa 0,0 l/m 0 min 2 min 0 W/m 9,7 km/h (2 Bft) 100,00 %
16.03.2021 23:20 4,7 C 4,4 C 3,4 C 96 % 1023,7 hPa 0,0 l/m 0 min 2 min 0 W/m 6,4 km/h (2 Bft) 100,00 %
16.03.2021 23:22 4,7 C 4,4 C 3,4 C 96 % 1023,7 hPa 0,0 l/m 0 min 2 min 0 W/m 3,2 km/h (1 Bft) 100,00 %
16.03.2021 23:24 4,7 C 4,4 C 3,4 C 96 % 1023,7 hPa 0,0 l/m 0 min 2 min 0 W/m 6,4 km/h (2 Bft) 100,00 %
16.03.2021 23:26 4,6 C 4,4 C 3,4 C 96 % 1023,7 hPa 0,0 l/m 0 min 2 min 0 W/m 9,7 km/h (2 Bft) 100,00 %
16.03.2021 23:28 4,6 C 4,4 C 3,4 C 96 % 1023,7 hPa 0,0 l/m 0 min 2 min 0 W/m 6,4 km/h (2 Bft) 100,00 %
16.03.2021 23:30 4,6 C 4,4 C 3,4 C 96 % 1023,7 hPa 0,0 l/m 0 min 2 min 0 W/m 3,2 km/h (1 Bft) 97,87 %
16.03.2021 23:32 4,6 C 4,4 C 3,4 C 96 % 1023,7 hPa 0,0 l/m 0 min 2 min 0 W/m 6,4 km/h (2 Bft) 97,22 %
16.03.2021 23:34 4,6 C 4,4 C 3,4 C 96 % 1023,8 hPa 0,0 l/m 0 min 0 min 0 W/m 6,4 km/h (2 Bft) 97,87 %
16.03.2021 23:36 4,6 C 4,4 C 3,4 C 96 % 1023,8 hPa 0,0 l/m 0 min 2 min 0 W/m 6,4 km/h (2 Bft) 97,83 %
16.03.2021 23:38 4,6 C 4,4 C 3,4 C 96 % 1023,8 hPa 0,0 l/m 0 min 2 min 0 W/m 3,2 km/h (1 Bft) 100,00 %
16.03.2021 23:40 4,6 C 4,4 C 3,4 C 96 % 1023,8 hPa 0,0 l/m 0 min 0 min 0 W/m 6,4 km/h (2 Bft) 100,00 %
16.03.2021 23:42 4,6 C 4,4 C 3,4 C 96 % 1023,8 hPa 0,0 l/m 0 min 0 min 0 W/m 6,4 km/h (2 Bft) 100,00 %
16.03.2021 23:44 4,6 C 4,4 C 3,4 C 96 % 1023,8 hPa 0,0 l/m 0 min 2 min 0 W/m 3,2 km/h (1 Bft) 100,00 %
16.03.2021 23:46 4,6 C 4,4 C 3,4 C 96 % 1023,8 hPa 0,0 l/m 0 min 0 min 0 W/m 6,4 km/h (2 Bft) 100,00 %
16.03.2021 23:48 4,6 C 4,4 C 3,4 C 96 % 1023,8 hPa 0,0 l/m 0 min 0 min 0 W/m 9,7 km/h (2 Bft) 97,83 %
16.03.2021 23:50 4,6 C 4,4 C 3,4 C 96 % 1023,8 hPa 0,0 l/m 0 min 2 min 0 W/m 6,4 km/h (2 Bft) 100,00 %
16.03.2021 23:52 4,6 C 4,4 C 3,4 C 96 % 1023,8 hPa 0,0 l/m 0 min 2 min 0 W/m 3,2 km/h (1 Bft) 97,87 %
16.03.2021 23:54 4,6 C 4,4 C 3,4 C 96 % 1023,8 hPa 0,0 l/m 0 min 2 min 0 W/m 12,9 km/h (3 Bft) 97,87 %
16.03.2021 23:56 4,6 C 4,4 C 3,4 C 96 % 1023,8 hPa 0,0 l/m 0 min 2 min 0 W/m 9,7 km/h (2 Bft) 100,00 %
16.03.2021 23:58 4,6 C 4,4 C 3,4 C 96 % 1023,9 hPa 0,0 l/m 0 min 2 min 0 W/m 9,7 km/h (2 Bft) 100,00 %
_ Min-Zeit 23:26 03:42 00:00 12:38 00:00 - - - - 20:38 08:16
Minimum _ 4,6 C 3,9 C 3,4 C 75 % 1020,5 hPa - - - - 0,0 km/h (0 Bft) 54,55 %
_ Max-Zeit 14:24 14:20 11:42 20:44 09:46 08:42 12:08 00:00 14:20 14:48 00:00
Maximum _ 9,3 C 14,4 C 11,1 C 96 % 1024,2 hPa 0,2 l/m 4 min 2 min 730 W/m 38,6 km/h
N-NO (5 Bft)
100,00 %
Durchschnitt _ 6,1 C 6,2 C 4,6 C 90 % 1023,1 hPa #1,2 l/m #5:26 h #5:10 h 215 W/m 12,6 km/h (3 Bft) 97,38 %
© 2021 W. Hausmann